﻿<?xml version="1.0" encoding="UTF-8" standalone="no" ?>
<gpx xmlns="http://www.topografix.com/GPX/1/1" creator="CompeGPS" version="1.1" xmlns:xsi="http://www.w3.org/2001/XMLSchema-instance" xsi:schemaLocation="http://www.topografix.com/GPX/1/1 http://www.topografix.com/GPX/1/1/gpx.xsd http://www.garmin.com/xmlschemas/GpxExtensions/v3 http://www.garmin.com/xmlschemas/GpxExtensionsv3.xsd http://www.garmin.com/xmlschemas/TrackPointExtension/v1 http://www.garmin.com/xmlschemas/TrackPointExtensionv1.xsd" xmlns:gpxtpx="http://www.garmin.com/xmlschemas/TrackPointExtension/v1">
  <metadata>
    <link href="http://www.compegps.com">
      <text>CompeGPS TEAM, SL</text>
    </link>
    <time>2015-02-19T21:30:04Z</time>
    <bounds maxlat="42.586829" maxlon="0.046056" minlat="42.577570" minlon="0.017983"/>
  </metadata>
  <trk>
    <name>mondoto</name>
    <trkseg>
      <trkpt lat="42.577570" lon="0.017991">
        <ele>1346.9</ele>
        <time>2014-05-03T12:21:27Z</time>
      </trkpt>
      <trkpt lat="42.577638" lon="0.018069">
        <ele>1349.2</ele>
        <time>2014-05-03T12:21:42Z</time>
      </trkpt>
      <trkpt lat="42.577729" lon="0.018100">
        <ele>1349.5</ele>
        <time>2014-05-03T12:21:53Z</time>
      </trkpt>
      <trkpt lat="42.577829" lon="0.018079">
        <ele>1352.1</ele>
        <time>2014-05-03T12:22:05Z</time>
      </trkpt>
      <trkpt lat="42.577921" lon="0.018039">
        <ele>1353.0</ele>
        <time>2014-05-03T12:22:16Z</time>
      </trkpt>
      <trkpt lat="42.578013" lon="0.018022">
        <ele>1354.0</ele>
        <time>2014-05-03T12:22:27Z</time>
      </trkpt>
      <trkpt lat="42.578089" lon="0.018026">
        <ele>1355.0</ele>
        <time>2014-05-03T12:22:38Z</time>
      </trkpt>
      <trkpt lat="42.578094" lon="0.018134">
        <ele>1357.9</ele>
        <time>2014-05-03T12:22:57Z</time>
      </trkpt>
      <trkpt lat="42.578116" lon="0.018231">
        <ele>1360.8</ele>
        <time>2014-05-03T12:23:14Z</time>
      </trkpt>
      <trkpt lat="42.578164" lon="0.018272">
        <ele>1362.2</ele>
        <time>2014-05-03T12:24:52Z</time>
      </trkpt>
      <trkpt lat="42.578215" lon="0.018385">
        <ele>1363.4</ele>
        <time>2014-05-03T12:25:07Z</time>
      </trkpt>
      <trkpt lat="42.578259" lon="0.018484">
        <ele>1365.9</ele>
        <time>2014-05-03T12:25:22Z</time>
      </trkpt>
      <trkpt lat="42.578325" lon="0.018574">
        <ele>1369.4</ele>
        <time>2014-05-03T12:25:39Z</time>
      </trkpt>
      <trkpt lat="42.578418" lon="0.018562">
        <ele>1372.7</ele>
        <time>2014-05-03T12:25:55Z</time>
      </trkpt>
      <trkpt lat="42.578508" lon="0.018563">
        <ele>1374.9</ele>
        <time>2014-05-03T12:26:10Z</time>
      </trkpt>
      <trkpt lat="42.578564" lon="0.018679">
        <ele>1376.9</ele>
        <time>2014-05-03T12:26:24Z</time>
      </trkpt>
      <trkpt lat="42.578648" lon="0.018671">
        <ele>1379.4</ele>
        <time>2014-05-03T12:26:40Z</time>
      </trkpt>
      <trkpt lat="42.578751" lon="0.018647">
        <ele>1382.9</ele>
        <time>2014-05-03T12:26:58Z</time>
      </trkpt>
      <trkpt lat="42.578849" lon="0.018629">
        <ele>1386.3</ele>
        <time>2014-05-03T12:27:18Z</time>
      </trkpt>
      <trkpt lat="42.578908" lon="0.018516">
        <ele>1389.4</ele>
        <time>2014-05-03T12:27:32Z</time>
      </trkpt>
      <trkpt lat="42.578994" lon="0.018452">
        <ele>1391.9</ele>
        <time>2014-05-03T12:27:47Z</time>
      </trkpt>
      <trkpt lat="42.579078" lon="0.018391">
        <ele>1393.8</ele>
        <time>2014-05-03T12:27:59Z</time>
      </trkpt>
      <trkpt lat="42.579156" lon="0.018314">
        <ele>1395.2</ele>
        <time>2014-05-03T12:28:10Z</time>
      </trkpt>
      <trkpt lat="42.579258" lon="0.018318">
        <ele>1397.4</ele>
        <time>2014-05-03T12:28:24Z</time>
      </trkpt>
      <trkpt lat="42.579351" lon="0.018351">
        <ele>1400.3</ele>
        <time>2014-05-03T12:28:39Z</time>
      </trkpt>
      <trkpt lat="42.579393" lon="0.018478">
        <ele>1403.3</ele>
        <time>2014-05-03T12:28:57Z</time>
      </trkpt>
      <trkpt lat="42.579371" lon="0.018584">
        <ele>1407.6</ele>
        <time>2014-05-03T12:29:17Z</time>
      </trkpt>
      <trkpt lat="42.579433" lon="0.018679">
        <ele>1410.9</ele>
        <time>2014-05-03T12:29:35Z</time>
      </trkpt>
      <trkpt lat="42.579460" lon="0.018806">
        <ele>1414.3</ele>
        <time>2014-05-03T12:29:52Z</time>
      </trkpt>
      <trkpt lat="42.579503" lon="0.018903">
        <ele>1417.9</ele>
        <time>2014-05-03T12:30:09Z</time>
      </trkpt>
      <trkpt lat="42.579557" lon="0.018994">
        <ele>1420.5</ele>
        <time>2014-05-03T12:30:27Z</time>
      </trkpt>
      <trkpt lat="42.579643" lon="0.019025">
        <ele>1424.4</ele>
        <time>2014-05-03T12:30:42Z</time>
      </trkpt>
      <trkpt lat="42.579739" lon="0.019040">
        <ele>1427.2</ele>
        <time>2014-05-03T12:30:58Z</time>
      </trkpt>
      <trkpt lat="42.579825" lon="0.019094">
        <ele>1430.4</ele>
        <time>2014-05-03T12:31:15Z</time>
      </trkpt>
      <trkpt lat="42.579853" lon="0.019224">
        <ele>1432.7</ele>
        <time>2014-05-03T12:31:31Z</time>
      </trkpt>
      <trkpt lat="42.579858" lon="0.019217">
        <ele>1433.3</ele>
        <time>2014-05-03T12:33:36Z</time>
      </trkpt>
      <trkpt lat="42.579880" lon="0.019349">
        <ele>1434.4</ele>
        <time>2014-05-03T12:34:16Z</time>
      </trkpt>
      <trkpt lat="42.579907" lon="0.019478">
        <ele>1435.9</ele>
        <time>2014-05-03T12:34:28Z</time>
      </trkpt>
      <trkpt lat="42.579946" lon="0.019620">
        <ele>1437.8</ele>
        <time>2014-05-03T12:34:44Z</time>
      </trkpt>
      <trkpt lat="42.579934" lon="0.019754">
        <ele>1439.7</ele>
        <time>2014-05-03T12:34:57Z</time>
      </trkpt>
      <trkpt lat="42.579922" lon="0.019887">
        <ele>1441.9</ele>
        <time>2014-05-03T12:35:11Z</time>
      </trkpt>
      <trkpt lat="42.579919" lon="0.020007">
        <ele>1443.9</ele>
        <time>2014-05-03T12:35:25Z</time>
      </trkpt>
      <trkpt lat="42.579986" lon="0.019931">
        <ele>1446.6</ele>
        <time>2014-05-03T12:35:41Z</time>
      </trkpt>
      <trkpt lat="42.580058" lon="0.019881">
        <ele>1448.3</ele>
        <time>2014-05-03T12:35:55Z</time>
      </trkpt>
      <trkpt lat="42.580106" lon="0.019969">
        <ele>1452.1</ele>
        <time>2014-05-03T12:36:15Z</time>
      </trkpt>
      <trkpt lat="42.580132" lon="0.020098">
        <ele>1454.4</ele>
        <time>2014-05-03T12:36:30Z</time>
      </trkpt>
      <trkpt lat="42.580201" lon="0.020178">
        <ele>1456.8</ele>
        <time>2014-05-03T12:36:46Z</time>
      </trkpt>
      <trkpt lat="42.580266" lon="0.020232">
        <ele>1460.6</ele>
        <time>2014-05-03T12:37:07Z</time>
      </trkpt>
      <trkpt lat="42.580294" lon="0.020126">
        <ele>1463.3</ele>
        <time>2014-05-03T12:37:22Z</time>
      </trkpt>
      <trkpt lat="42.580358" lon="0.020064">
        <ele>1466.5</ele>
        <time>2014-05-03T12:37:39Z</time>
      </trkpt>
      <trkpt lat="42.580401" lon="0.019958">
        <ele>1469.1</ele>
        <time>2014-05-03T12:37:57Z</time>
      </trkpt>
      <trkpt lat="42.580482" lon="0.020051">
        <ele>1470.7</ele>
        <time>2014-05-03T12:38:12Z</time>
      </trkpt>
      <trkpt lat="42.580497" lon="0.020180">
        <ele>1471.7</ele>
        <time>2014-05-03T12:38:27Z</time>
      </trkpt>
      <trkpt lat="42.580537" lon="0.020310">
        <ele>1473.6</ele>
        <time>2014-05-03T12:38:41Z</time>
      </trkpt>
      <trkpt lat="42.580575" lon="0.020434">
        <ele>1475.1</ele>
        <time>2014-05-03T12:38:54Z</time>
      </trkpt>
      <trkpt lat="42.580542" lon="0.020563">
        <ele>1476.3</ele>
        <time>2014-05-03T12:39:07Z</time>
      </trkpt>
      <trkpt lat="42.580499" lon="0.020693">
        <ele>1478.3</ele>
        <time>2014-05-03T12:39:20Z</time>
      </trkpt>
      <trkpt lat="42.580457" lon="0.020813">
        <ele>1479.3</ele>
        <time>2014-05-03T12:39:32Z</time>
      </trkpt>
      <trkpt lat="42.580512" lon="0.020919">
        <ele>1479.6</ele>
        <time>2014-05-03T12:39:46Z</time>
      </trkpt>
      <trkpt lat="42.580514" lon="0.021039">
        <ele>1482.8</ele>
        <time>2014-05-03T12:40:00Z</time>
      </trkpt>
      <trkpt lat="42.580550" lon="0.021150">
        <ele>1483.7</ele>
        <time>2014-05-03T12:40:14Z</time>
      </trkpt>
      <trkpt lat="42.580575" lon="0.021270">
        <ele>1487.3</ele>
        <time>2014-05-03T12:40:32Z</time>
      </trkpt>
      <trkpt lat="42.580579" lon="0.021419">
        <ele>1488.5</ele>
        <time>2014-05-03T12:40:44Z</time>
      </trkpt>
      <trkpt lat="42.580611" lon="0.021555">
        <ele>1489.1</ele>
        <time>2014-05-03T12:40:57Z</time>
      </trkpt>
      <trkpt lat="42.580646" lon="0.021678">
        <ele>1491.7</ele>
        <time>2014-05-03T12:41:10Z</time>
      </trkpt>
      <trkpt lat="42.580667" lon="0.021798">
        <ele>1492.4</ele>
        <time>2014-05-03T12:41:23Z</time>
      </trkpt>
      <trkpt lat="42.580696" lon="0.021930">
        <ele>1492.4</ele>
        <time>2014-05-03T12:41:35Z</time>
      </trkpt>
      <trkpt lat="42.580632" lon="0.022020">
        <ele>1493.5</ele>
        <time>2014-05-03T12:41:48Z</time>
      </trkpt>
      <trkpt lat="42.580638" lon="0.022147">
        <ele>1495.2</ele>
        <time>2014-05-03T12:42:01Z</time>
      </trkpt>
      <trkpt lat="42.580658" lon="0.022266">
        <ele>1497.5</ele>
        <time>2014-05-03T12:42:15Z</time>
      </trkpt>
      <trkpt lat="42.580685" lon="0.022385">
        <ele>1500.6</ele>
        <time>2014-05-03T12:42:31Z</time>
      </trkpt>
      <trkpt lat="42.580672" lon="0.022501">
        <ele>1502.6</ele>
        <time>2014-05-03T12:42:46Z</time>
      </trkpt>
      <trkpt lat="42.580659" lon="0.022642">
        <ele>1503.8</ele>
        <time>2014-05-03T12:42:59Z</time>
      </trkpt>
      <trkpt lat="42.580644" lon="0.022755">
        <ele>1504.9</ele>
        <time>2014-05-03T12:43:10Z</time>
      </trkpt>
      <trkpt lat="42.580608" lon="0.022883">
        <ele>1506.1</ele>
        <time>2014-05-03T12:43:22Z</time>
      </trkpt>
      <trkpt lat="42.580572" lon="0.023009">
        <ele>1507.3</ele>
        <time>2014-05-03T12:43:35Z</time>
      </trkpt>
      <trkpt lat="42.580548" lon="0.023151">
        <ele>1508.3</ele>
        <time>2014-05-03T12:43:48Z</time>
      </trkpt>
      <trkpt lat="42.580519" lon="0.023277">
        <ele>1509.1</ele>
        <time>2014-05-03T12:43:59Z</time>
      </trkpt>
      <trkpt lat="42.580494" lon="0.023406">
        <ele>1509.9</ele>
        <time>2014-05-03T12:44:12Z</time>
      </trkpt>
      <trkpt lat="42.580448" lon="0.023535">
        <ele>1510.5</ele>
        <time>2014-05-03T12:44:24Z</time>
      </trkpt>
      <trkpt lat="42.580431" lon="0.023679">
        <ele>1511.2</ele>
        <time>2014-05-03T12:44:37Z</time>
      </trkpt>
      <trkpt lat="42.580413" lon="0.023812">
        <ele>1511.5</ele>
        <time>2014-05-03T12:44:49Z</time>
      </trkpt>
      <trkpt lat="42.580426" lon="0.023942">
        <ele>1512.3</ele>
        <time>2014-05-03T12:45:04Z</time>
      </trkpt>
      <trkpt lat="42.580444" lon="0.024084">
        <ele>1515.6</ele>
        <time>2014-05-03T12:45:20Z</time>
      </trkpt>
      <trkpt lat="42.580438" lon="0.024213">
        <ele>1518.4</ele>
        <time>2014-05-03T12:45:36Z</time>
      </trkpt>
      <trkpt lat="42.580470" lon="0.024339">
        <ele>1520.3</ele>
        <time>2014-05-03T12:45:56Z</time>
      </trkpt>
      <trkpt lat="42.580490" lon="0.024471">
        <ele>1522.3</ele>
        <time>2014-05-03T12:46:15Z</time>
      </trkpt>
      <trkpt lat="42.580477" lon="0.024568">
        <ele>1523.8</ele>
        <time>2014-05-03T12:47:40Z</time>
      </trkpt>
      <trkpt lat="42.580453" lon="0.024711">
        <ele>1524.7</ele>
        <time>2014-05-03T12:47:53Z</time>
      </trkpt>
      <trkpt lat="42.580442" lon="0.024842">
        <ele>1525.4</ele>
        <time>2014-05-03T12:48:07Z</time>
      </trkpt>
      <trkpt lat="42.580470" lon="0.024948">
        <ele>1527.9</ele>
        <time>2014-05-03T12:48:27Z</time>
      </trkpt>
      <trkpt lat="42.580457" lon="0.025080">
        <ele>1528.9</ele>
        <time>2014-05-03T12:48:40Z</time>
      </trkpt>
      <trkpt lat="42.580477" lon="0.025192">
        <ele>1530.4</ele>
        <time>2014-05-03T12:48:55Z</time>
      </trkpt>
      <trkpt lat="42.580487" lon="0.025314">
        <ele>1532.2</ele>
        <time>2014-05-03T12:49:11Z</time>
      </trkpt>
      <trkpt lat="42.580479" lon="0.025451">
        <ele>1534.5</ele>
        <time>2014-05-03T12:49:27Z</time>
      </trkpt>
      <trkpt lat="42.580490" lon="0.025588">
        <ele>1534.9</ele>
        <time>2014-05-03T12:49:40Z</time>
      </trkpt>
      <trkpt lat="42.580504" lon="0.025713">
        <ele>1536.5</ele>
        <time>2014-05-03T12:49:54Z</time>
      </trkpt>
      <trkpt lat="42.580522" lon="0.025847">
        <ele>1537.8</ele>
        <time>2014-05-03T12:50:09Z</time>
      </trkpt>
      <trkpt lat="42.580537" lon="0.025967">
        <ele>1538.8</ele>
        <time>2014-05-03T12:50:25Z</time>
      </trkpt>
      <trkpt lat="42.580564" lon="0.026084">
        <ele>1541.7</ele>
        <time>2014-05-03T12:50:43Z</time>
      </trkpt>
      <trkpt lat="42.580602" lon="0.026198">
        <ele>1543.4</ele>
        <time>2014-05-03T12:50:59Z</time>
      </trkpt>
      <trkpt lat="42.580642" lon="0.026310">
        <ele>1546.1</ele>
        <time>2014-05-03T12:51:18Z</time>
      </trkpt>
      <trkpt lat="42.580654" lon="0.026429">
        <ele>1548.0</ele>
        <time>2014-05-03T12:51:34Z</time>
      </trkpt>
      <trkpt lat="42.580633" lon="0.026557">
        <ele>1549.1</ele>
        <time>2014-05-03T12:51:47Z</time>
      </trkpt>
      <trkpt lat="42.580622" lon="0.026673">
        <ele>1550.3</ele>
        <time>2014-05-03T12:51:59Z</time>
      </trkpt>
      <trkpt lat="42.580627" lon="0.026800">
        <ele>1551.2</ele>
        <time>2014-05-03T12:52:14Z</time>
      </trkpt>
      <trkpt lat="42.580645" lon="0.026916">
        <ele>1553.7</ele>
        <time>2014-05-03T12:52:29Z</time>
      </trkpt>
      <trkpt lat="42.580639" lon="0.027043">
        <ele>1555.6</ele>
        <time>2014-05-03T12:52:43Z</time>
      </trkpt>
      <trkpt lat="42.580639" lon="0.027180">
        <ele>1556.8</ele>
        <time>2014-05-03T12:52:57Z</time>
      </trkpt>
      <trkpt lat="42.580684" lon="0.027156">
        <ele>1558.3</ele>
        <time>2014-05-03T12:53:12Z</time>
      </trkpt>
      <trkpt lat="42.580764" lon="0.027136">
        <ele>1560.5</ele>
        <time>2014-05-03T12:53:26Z</time>
      </trkpt>
      <trkpt lat="42.580791" lon="0.027273">
        <ele>1563.2</ele>
        <time>2014-05-03T12:53:41Z</time>
      </trkpt>
      <trkpt lat="42.580821" lon="0.027420">
        <ele>1565.4</ele>
        <time>2014-05-03T12:53:55Z</time>
      </trkpt>
      <trkpt lat="42.580808" lon="0.027538">
        <ele>1566.8</ele>
        <time>2014-05-03T12:54:07Z</time>
      </trkpt>
      <trkpt lat="42.580832" lon="0.027667">
        <ele>1568.2</ele>
        <time>2014-05-03T12:54:21Z</time>
      </trkpt>
      <trkpt lat="42.580842" lon="0.027802">
        <ele>1570.1</ele>
        <time>2014-05-03T12:54:33Z</time>
      </trkpt>
      <trkpt lat="42.580842" lon="0.027925">
        <ele>1571.2</ele>
        <time>2014-05-03T12:54:46Z</time>
      </trkpt>
      <trkpt lat="42.580866" lon="0.028049">
        <ele>1573.6</ele>
        <time>2014-05-03T12:55:00Z</time>
      </trkpt>
      <trkpt lat="42.580874" lon="0.028179">
        <ele>1574.9</ele>
        <time>2014-05-03T12:55:13Z</time>
      </trkpt>
      <trkpt lat="42.580879" lon="0.028304">
        <ele>1576.5</ele>
        <time>2014-05-03T12:55:25Z</time>
      </trkpt>
      <trkpt lat="42.580917" lon="0.028427">
        <ele>1579.1</ele>
        <time>2014-05-03T12:55:39Z</time>
      </trkpt>
      <trkpt lat="42.580938" lon="0.028565">
        <ele>1580.9</ele>
        <time>2014-05-03T12:55:52Z</time>
      </trkpt>
      <trkpt lat="42.581000" lon="0.028647">
        <ele>1583.7</ele>
        <time>2014-05-03T12:56:08Z</time>
      </trkpt>
      <trkpt lat="42.581078" lon="0.028688">
        <ele>1586.8</ele>
        <time>2014-05-03T12:56:26Z</time>
      </trkpt>
      <trkpt lat="42.581108" lon="0.028807">
        <ele>1588.2</ele>
        <time>2014-05-03T12:56:37Z</time>
      </trkpt>
      <trkpt lat="42.581129" lon="0.028922">
        <ele>1590.0</ele>
        <time>2014-05-03T12:56:48Z</time>
      </trkpt>
      <trkpt lat="42.581169" lon="0.029032">
        <ele>1590.8</ele>
        <time>2014-05-03T12:56:58Z</time>
      </trkpt>
      <trkpt lat="42.581196" lon="0.029159">
        <ele>1591.8</ele>
        <time>2014-05-03T12:57:08Z</time>
      </trkpt>
      <trkpt lat="42.581198" lon="0.029267">
        <ele>1594.0</ele>
        <time>2014-05-03T12:57:19Z</time>
      </trkpt>
      <trkpt lat="42.581265" lon="0.029298">
        <ele>1596.3</ele>
        <time>2014-05-03T12:57:35Z</time>
      </trkpt>
      <trkpt lat="42.581333" lon="0.029220">
        <ele>1598.4</ele>
        <time>2014-05-03T12:57:48Z</time>
      </trkpt>
      <trkpt lat="42.581401" lon="0.029283">
        <ele>1600.4</ele>
        <time>2014-05-03T12:58:02Z</time>
      </trkpt>
      <trkpt lat="42.581468" lon="0.029383">
        <ele>1602.7</ele>
        <time>2014-05-03T12:58:17Z</time>
      </trkpt>
      <trkpt lat="42.581538" lon="0.029455">
        <ele>1604.2</ele>
        <time>2014-05-03T12:58:31Z</time>
      </trkpt>
      <trkpt lat="42.581612" lon="0.029555">
        <ele>1606.4</ele>
        <time>2014-05-03T12:58:45Z</time>
      </trkpt>
      <trkpt lat="42.581664" lon="0.029657">
        <ele>1608.7</ele>
        <time>2014-05-03T12:58:58Z</time>
      </trkpt>
      <trkpt lat="42.581717" lon="0.029771">
        <ele>1610.2</ele>
        <time>2014-05-03T12:59:11Z</time>
      </trkpt>
      <trkpt lat="42.581704" lon="0.029892">
        <ele>1612.2</ele>
        <time>2014-05-03T12:59:25Z</time>
      </trkpt>
      <trkpt lat="42.581789" lon="0.029905">
        <ele>1614.8</ele>
        <time>2014-05-03T12:59:41Z</time>
      </trkpt>
      <trkpt lat="42.581876" lon="0.029887">
        <ele>1616.7</ele>
        <time>2014-05-03T12:59:52Z</time>
      </trkpt>
      <trkpt lat="42.581944" lon="0.029979">
        <ele>1618.6</ele>
        <time>2014-05-03T13:00:05Z</time>
      </trkpt>
      <trkpt lat="42.582018" lon="0.030069">
        <ele>1621.7</ele>
        <time>2014-05-03T13:00:19Z</time>
      </trkpt>
      <trkpt lat="42.582118" lon="0.030120">
        <ele>1623.8</ele>
        <time>2014-05-03T13:00:29Z</time>
      </trkpt>
      <trkpt lat="42.582181" lon="0.030210">
        <ele>1625.5</ele>
        <time>2014-05-03T13:00:43Z</time>
      </trkpt>
      <trkpt lat="42.582295" lon="0.030244">
        <ele>1628.2</ele>
        <time>2014-05-03T13:00:57Z</time>
      </trkpt>
      <trkpt lat="42.582383" lon="0.030327">
        <ele>1630.4</ele>
        <time>2014-05-03T13:01:11Z</time>
      </trkpt>
      <trkpt lat="42.582468" lon="0.030408">
        <ele>1631.8</ele>
        <time>2014-05-03T13:01:24Z</time>
      </trkpt>
      <trkpt lat="42.582548" lon="0.030491">
        <ele>1632.8</ele>
        <time>2014-05-03T13:01:36Z</time>
      </trkpt>
      <trkpt lat="42.582634" lon="0.030498">
        <ele>1634.3</ele>
        <time>2014-05-03T13:01:48Z</time>
      </trkpt>
      <trkpt lat="42.582736" lon="0.030531">
        <ele>1636.6</ele>
        <time>2014-05-03T13:02:00Z</time>
      </trkpt>
      <trkpt lat="42.582840" lon="0.030565">
        <ele>1638.5</ele>
        <time>2014-05-03T13:02:13Z</time>
      </trkpt>
      <trkpt lat="42.582953" lon="0.030565">
        <ele>1641.3</ele>
        <time>2014-05-03T13:02:25Z</time>
      </trkpt>
      <trkpt lat="42.583060" lon="0.030554">
        <ele>1643.6</ele>
        <time>2014-05-03T13:02:38Z</time>
      </trkpt>
      <trkpt lat="42.583164" lon="0.030532">
        <ele>1645.7</ele>
        <time>2014-05-03T13:02:50Z</time>
      </trkpt>
      <trkpt lat="42.583264" lon="0.030528">
        <ele>1647.0</ele>
        <time>2014-05-03T13:03:01Z</time>
      </trkpt>
      <trkpt lat="42.583364" lon="0.030491">
        <ele>1649.2</ele>
        <time>2014-05-03T13:03:12Z</time>
      </trkpt>
      <trkpt lat="42.583446" lon="0.030446">
        <ele>1650.3</ele>
        <time>2014-05-03T13:03:23Z</time>
      </trkpt>
      <trkpt lat="42.583539" lon="0.030403">
        <ele>1651.3</ele>
        <time>2014-05-03T13:03:36Z</time>
      </trkpt>
      <trkpt lat="42.583641" lon="0.030373">
        <ele>1652.1</ele>
        <time>2014-05-03T13:03:50Z</time>
      </trkpt>
      <trkpt lat="42.583735" lon="0.030340">
        <ele>1654.5</ele>
        <time>2014-05-03T13:04:03Z</time>
      </trkpt>
      <trkpt lat="42.583832" lon="0.030309">
        <ele>1655.6</ele>
        <time>2014-05-03T13:04:17Z</time>
      </trkpt>
      <trkpt lat="42.583944" lon="0.030343">
        <ele>1657.1</ele>
        <time>2014-05-03T13:04:31Z</time>
      </trkpt>
      <trkpt lat="42.584007" lon="0.030413">
        <ele>1658.9</ele>
        <time>2014-05-03T13:04:45Z</time>
      </trkpt>
      <trkpt lat="42.584041" lon="0.030531">
        <ele>1659.2</ele>
        <time>2014-05-03T13:04:56Z</time>
      </trkpt>
      <trkpt lat="42.584131" lon="0.030525">
        <ele>1660.5</ele>
        <time>2014-05-03T13:05:08Z</time>
      </trkpt>
      <trkpt lat="42.584179" lon="0.030616">
        <ele>1663.2</ele>
        <time>2014-05-03T13:05:22Z</time>
      </trkpt>
      <trkpt lat="42.584124" lon="0.030728">
        <ele>1665.5</ele>
        <time>2014-05-03T13:05:36Z</time>
      </trkpt>
      <trkpt lat="42.584078" lon="0.030820">
        <ele>1668.0</ele>
        <time>2014-05-03T13:05:49Z</time>
      </trkpt>
      <trkpt lat="42.584166" lon="0.030872">
        <ele>1670.8</ele>
        <time>2014-05-03T13:06:05Z</time>
      </trkpt>
      <trkpt lat="42.584259" lon="0.030923">
        <ele>1674.1</ele>
        <time>2014-05-03T13:06:21Z</time>
      </trkpt>
      <trkpt lat="42.584358" lon="0.030927">
        <ele>1676.5</ele>
        <time>2014-05-03T13:06:40Z</time>
      </trkpt>
      <trkpt lat="42.584479" lon="0.030913">
        <ele>1678.7</ele>
        <time>2014-05-03T13:06:54Z</time>
      </trkpt>
      <trkpt lat="42.584580" lon="0.030945">
        <ele>1681.3</ele>
        <time>2014-05-03T13:07:10Z</time>
      </trkpt>
      <trkpt lat="42.584673" lon="0.030983">
        <ele>1682.9</ele>
        <time>2014-05-03T13:07:22Z</time>
      </trkpt>
      <trkpt lat="42.584788" lon="0.030997">
        <ele>1685.8</ele>
        <time>2014-05-03T13:07:37Z</time>
      </trkpt>
      <trkpt lat="42.584877" lon="0.031009">
        <ele>1688.4</ele>
        <time>2014-05-03T13:07:51Z</time>
      </trkpt>
      <trkpt lat="42.584978" lon="0.030991">
        <ele>1690.3</ele>
        <time>2014-05-03T13:08:05Z</time>
      </trkpt>
      <trkpt lat="42.585081" lon="0.030968">
        <ele>1692.7</ele>
        <time>2014-05-03T13:08:20Z</time>
      </trkpt>
      <trkpt lat="42.585195" lon="0.030968">
        <ele>1695.8</ele>
        <time>2014-05-03T13:08:35Z</time>
      </trkpt>
      <trkpt lat="42.585297" lon="0.031042">
        <ele>1699.1</ele>
        <time>2014-05-03T13:08:50Z</time>
      </trkpt>
      <trkpt lat="42.585391" lon="0.031013">
        <ele>1703.6</ele>
        <time>2014-05-03T13:09:05Z</time>
      </trkpt>
      <trkpt lat="42.585482" lon="0.031053">
        <ele>1706.4</ele>
        <time>2014-05-03T13:09:20Z</time>
      </trkpt>
      <trkpt lat="42.585579" lon="0.031099">
        <ele>1708.9</ele>
        <time>2014-05-03T13:09:35Z</time>
      </trkpt>
      <trkpt lat="42.585621" lon="0.031212">
        <ele>1709.9</ele>
        <time>2014-05-03T13:09:50Z</time>
      </trkpt>
      <trkpt lat="42.585632" lon="0.031331">
        <ele>1711.5</ele>
        <time>2014-05-03T13:10:05Z</time>
      </trkpt>
      <trkpt lat="42.585586" lon="0.031453">
        <ele>1712.6</ele>
        <time>2014-05-03T13:10:18Z</time>
      </trkpt>
      <trkpt lat="42.585583" lon="0.031598">
        <ele>1713.8</ele>
        <time>2014-05-03T13:10:28Z</time>
      </trkpt>
      <trkpt lat="42.585664" lon="0.031656">
        <ele>1715.9</ele>
        <time>2014-05-03T13:10:43Z</time>
      </trkpt>
      <trkpt lat="42.585750" lon="0.031679">
        <ele>1717.9</ele>
        <time>2014-05-03T13:10:56Z</time>
      </trkpt>
      <trkpt lat="42.585804" lon="0.031790">
        <ele>1721.9</ele>
        <time>2014-05-03T13:11:12Z</time>
      </trkpt>
      <trkpt lat="42.585836" lon="0.031929">
        <ele>1724.0</ele>
        <time>2014-05-03T13:11:25Z</time>
      </trkpt>
      <trkpt lat="42.585832" lon="0.032056">
        <ele>1725.6</ele>
        <time>2014-05-03T13:11:35Z</time>
      </trkpt>
      <trkpt lat="42.585830" lon="0.032191">
        <ele>1727.0</ele>
        <time>2014-05-03T13:11:45Z</time>
      </trkpt>
      <trkpt lat="42.585845" lon="0.032344">
        <ele>1729.9</ele>
        <time>2014-05-03T13:11:56Z</time>
      </trkpt>
      <trkpt lat="42.585886" lon="0.032465">
        <ele>1731.7</ele>
        <time>2014-05-03T13:12:06Z</time>
      </trkpt>
      <trkpt lat="42.585908" lon="0.032600">
        <ele>1733.9</ele>
        <time>2014-05-03T13:12:18Z</time>
      </trkpt>
      <trkpt lat="42.585902" lon="0.032722">
        <ele>1734.8</ele>
        <time>2014-05-03T13:12:31Z</time>
      </trkpt>
      <trkpt lat="42.585902" lon="0.032847">
        <ele>1737.2</ele>
        <time>2014-05-03T13:12:45Z</time>
      </trkpt>
      <trkpt lat="42.585920" lon="0.032963">
        <ele>1739.8</ele>
        <time>2014-05-03T13:12:58Z</time>
      </trkpt>
      <trkpt lat="42.585928" lon="0.033081">
        <ele>1740.9</ele>
        <time>2014-05-03T13:13:09Z</time>
      </trkpt>
      <trkpt lat="42.585980" lon="0.033174">
        <ele>1744.2</ele>
        <time>2014-05-03T13:13:22Z</time>
      </trkpt>
      <trkpt lat="42.586019" lon="0.033288">
        <ele>1745.9</ele>
        <time>2014-05-03T13:13:34Z</time>
      </trkpt>
      <trkpt lat="42.586025" lon="0.033411">
        <ele>1747.7</ele>
        <time>2014-05-03T13:13:45Z</time>
      </trkpt>
      <trkpt lat="42.586014" lon="0.033518">
        <ele>1752.0</ele>
        <time>2014-05-03T13:14:18Z</time>
      </trkpt>
      <trkpt lat="42.586027" lon="0.033633">
        <ele>1751.7</ele>
        <time>2014-05-03T13:17:09Z</time>
      </trkpt>
      <trkpt lat="42.586062" lon="0.033749">
        <ele>1752.8</ele>
        <time>2014-05-03T13:17:19Z</time>
      </trkpt>
      <trkpt lat="42.586089" lon="0.033870">
        <ele>1754.9</ele>
        <time>2014-05-03T13:17:28Z</time>
      </trkpt>
      <trkpt lat="42.586152" lon="0.033992">
        <ele>1756.8</ele>
        <time>2014-05-03T13:17:38Z</time>
      </trkpt>
      <trkpt lat="42.586213" lon="0.034097">
        <ele>1758.4</ele>
        <time>2014-05-03T13:17:48Z</time>
      </trkpt>
      <trkpt lat="42.586277" lon="0.034215">
        <ele>1761.1</ele>
        <time>2014-05-03T13:18:02Z</time>
      </trkpt>
      <trkpt lat="42.586354" lon="0.034289">
        <ele>1762.7</ele>
        <time>2014-05-03T13:18:12Z</time>
      </trkpt>
      <trkpt lat="42.586421" lon="0.034356">
        <ele>1764.8</ele>
        <time>2014-05-03T13:18:23Z</time>
      </trkpt>
      <trkpt lat="42.586487" lon="0.034444">
        <ele>1767.0</ele>
        <time>2014-05-03T13:18:36Z</time>
      </trkpt>
      <trkpt lat="42.586512" lon="0.034591">
        <ele>1770.6</ele>
        <time>2014-05-03T13:18:51Z</time>
      </trkpt>
      <trkpt lat="42.586545" lon="0.034703">
        <ele>1774.4</ele>
        <time>2014-05-03T13:19:04Z</time>
      </trkpt>
      <trkpt lat="42.586567" lon="0.034838">
        <ele>1778.4</ele>
        <time>2014-05-03T13:19:19Z</time>
      </trkpt>
      <trkpt lat="42.586585" lon="0.034967">
        <ele>1781.2</ele>
        <time>2014-05-03T13:19:33Z</time>
      </trkpt>
      <trkpt lat="42.586604" lon="0.035095">
        <ele>1785.3</ele>
        <time>2014-05-03T13:19:46Z</time>
      </trkpt>
      <trkpt lat="42.586658" lon="0.035196">
        <ele>1787.8</ele>
        <time>2014-05-03T13:19:58Z</time>
      </trkpt>
      <trkpt lat="42.586700" lon="0.035307">
        <ele>1789.8</ele>
        <time>2014-05-03T13:20:10Z</time>
      </trkpt>
      <trkpt lat="42.586704" lon="0.035400">
        <ele>1791.4</ele>
        <time>2014-05-03T13:20:49Z</time>
      </trkpt>
      <trkpt lat="42.586747" lon="0.035521">
        <ele>1791.8</ele>
        <time>2014-05-03T13:21:03Z</time>
      </trkpt>
      <trkpt lat="42.586787" lon="0.035644">
        <ele>1791.9</ele>
        <time>2014-05-03T13:21:15Z</time>
      </trkpt>
      <trkpt lat="42.586822" lon="0.035797">
        <ele>1794.2</ele>
        <time>2014-05-03T13:21:27Z</time>
      </trkpt>
      <trkpt lat="42.586827" lon="0.035920">
        <ele>1794.2</ele>
        <time>2014-05-03T13:21:38Z</time>
      </trkpt>
      <trkpt lat="42.586829" lon="0.036055">
        <ele>1793.9</ele>
        <time>2014-05-03T13:21:48Z</time>
      </trkpt>
      <trkpt lat="42.586815" lon="0.036186">
        <ele>1793.9</ele>
        <time>2014-05-03T13:21:57Z</time>
      </trkpt>
      <trkpt lat="42.586783" lon="0.036314">
        <ele>1795.2</ele>
        <time>2014-05-03T13:22:07Z</time>
      </trkpt>
      <trkpt lat="42.586727" lon="0.036422">
        <ele>1798.3</ele>
        <time>2014-05-03T13:22:18Z</time>
      </trkpt>
      <trkpt lat="42.586657" lon="0.036523">
        <ele>1801.0</ele>
        <time>2014-05-03T13:22:28Z</time>
      </trkpt>
      <trkpt lat="42.586572" lon="0.036604">
        <ele>1802.2</ele>
        <time>2014-05-03T13:22:41Z</time>
      </trkpt>
      <trkpt lat="42.586527" lon="0.036703">
        <ele>1802.4</ele>
        <time>2014-05-03T13:22:49Z</time>
      </trkpt>
      <trkpt lat="42.586486" lon="0.036817">
        <ele>1802.8</ele>
        <time>2014-05-03T13:22:56Z</time>
      </trkpt>
      <trkpt lat="42.586410" lon="0.036921">
        <ele>1803.9</ele>
        <time>2014-05-03T13:23:05Z</time>
      </trkpt>
      <trkpt lat="42.586347" lon="0.037008">
        <ele>1805.3</ele>
        <time>2014-05-03T13:23:15Z</time>
      </trkpt>
      <trkpt lat="42.586300" lon="0.037075">
        <ele>1806.1</ele>
        <time>2014-05-03T13:23:59Z</time>
      </trkpt>
      <trkpt lat="42.586240" lon="0.037178">
        <ele>1806.5</ele>
        <time>2014-05-03T13:24:08Z</time>
      </trkpt>
      <trkpt lat="42.586188" lon="0.037280">
        <ele>1808.3</ele>
        <time>2014-05-03T13:24:18Z</time>
      </trkpt>
      <trkpt lat="42.586139" lon="0.037399">
        <ele>1810.3</ele>
        <time>2014-05-03T13:24:29Z</time>
      </trkpt>
      <trkpt lat="42.586077" lon="0.037495">
        <ele>1812.3</ele>
        <time>2014-05-03T13:24:40Z</time>
      </trkpt>
      <trkpt lat="42.586012" lon="0.037584">
        <ele>1814.1</ele>
        <time>2014-05-03T13:24:50Z</time>
      </trkpt>
      <trkpt lat="42.585961" lon="0.037697">
        <ele>1816.8</ele>
        <time>2014-05-03T13:25:02Z</time>
      </trkpt>
      <trkpt lat="42.585933" lon="0.037807">
        <ele>1819.2</ele>
        <time>2014-05-03T13:25:12Z</time>
      </trkpt>
      <trkpt lat="42.585918" lon="0.037920">
        <ele>1821.3</ele>
        <time>2014-05-03T13:25:24Z</time>
      </trkpt>
      <trkpt lat="42.585883" lon="0.038033">
        <ele>1823.7</ele>
        <time>2014-05-03T13:25:37Z</time>
      </trkpt>
      <trkpt lat="42.585847" lon="0.038164">
        <ele>1825.1</ele>
        <time>2014-05-03T13:25:52Z</time>
      </trkpt>
      <trkpt lat="42.585831" lon="0.038301">
        <ele>1828.7</ele>
        <time>2014-05-03T13:26:09Z</time>
      </trkpt>
      <trkpt lat="42.585827" lon="0.038423">
        <ele>1831.7</ele>
        <time>2014-05-03T13:26:25Z</time>
      </trkpt>
      <trkpt lat="42.585809" lon="0.038542">
        <ele>1833.4</ele>
        <time>2014-05-03T13:26:38Z</time>
      </trkpt>
      <trkpt lat="42.585803" lon="0.038681">
        <ele>1836.2</ele>
        <time>2014-05-03T13:26:52Z</time>
      </trkpt>
      <trkpt lat="42.585771" lon="0.038800">
        <ele>1838.4</ele>
        <time>2014-05-03T13:27:05Z</time>
      </trkpt>
      <trkpt lat="42.585715" lon="0.038916">
        <ele>1840.4</ele>
        <time>2014-05-03T13:27:19Z</time>
      </trkpt>
      <trkpt lat="42.585659" lon="0.039026">
        <ele>1842.9</ele>
        <time>2014-05-03T13:27:33Z</time>
      </trkpt>
      <trkpt lat="42.585584" lon="0.039107">
        <ele>1845.2</ele>
        <time>2014-05-03T13:27:44Z</time>
      </trkpt>
      <trkpt lat="42.585566" lon="0.039225">
        <ele>1846.7</ele>
        <time>2014-05-03T13:27:58Z</time>
      </trkpt>
      <trkpt lat="42.585540" lon="0.039351">
        <ele>1849.2</ele>
        <time>2014-05-03T13:28:13Z</time>
      </trkpt>
      <trkpt lat="42.585573" lon="0.039475">
        <ele>1850.7</ele>
        <time>2014-05-03T13:28:27Z</time>
      </trkpt>
      <trkpt lat="42.585562" lon="0.039598">
        <ele>1852.5</ele>
        <time>2014-05-03T13:28:39Z</time>
      </trkpt>
      <trkpt lat="42.585561" lon="0.039727">
        <ele>1854.4</ele>
        <time>2014-05-03T13:28:53Z</time>
      </trkpt>
      <trkpt lat="42.585532" lon="0.039831">
        <ele>1856.3</ele>
        <time>2014-05-03T13:29:35Z</time>
      </trkpt>
      <trkpt lat="42.585500" lon="0.039939">
        <ele>1860.4</ele>
        <time>2014-05-03T13:30:14Z</time>
      </trkpt>
      <trkpt lat="42.585485" lon="0.040065">
        <ele>1861.6</ele>
        <time>2014-05-03T13:30:26Z</time>
      </trkpt>
      <trkpt lat="42.585454" lon="0.040188">
        <ele>1863.5</ele>
        <time>2014-05-03T13:30:39Z</time>
      </trkpt>
      <trkpt lat="42.585410" lon="0.040319">
        <ele>1865.7</ele>
        <time>2014-05-03T13:30:51Z</time>
      </trkpt>
      <trkpt lat="42.585362" lon="0.040430">
        <ele>1866.8</ele>
        <time>2014-05-03T13:31:03Z</time>
      </trkpt>
      <trkpt lat="42.585311" lon="0.040551">
        <ele>1869.2</ele>
        <time>2014-05-03T13:31:16Z</time>
      </trkpt>
      <trkpt lat="42.585282" lon="0.040676">
        <ele>1870.8</ele>
        <time>2014-05-03T13:31:27Z</time>
      </trkpt>
      <trkpt lat="42.585230" lon="0.040776">
        <ele>1872.1</ele>
        <time>2014-05-03T13:31:39Z</time>
      </trkpt>
      <trkpt lat="42.585206" lon="0.040901">
        <ele>1874.1</ele>
        <time>2014-05-03T13:31:52Z</time>
      </trkpt>
      <trkpt lat="42.585163" lon="0.041020">
        <ele>1876.7</ele>
        <time>2014-05-03T13:32:05Z</time>
      </trkpt>
      <trkpt lat="42.585135" lon="0.041104">
        <ele>1876.8</ele>
        <time>2014-05-03T13:33:59Z</time>
      </trkpt>
      <trkpt lat="42.585079" lon="0.041218">
        <ele>1877.7</ele>
        <time>2014-05-03T13:34:13Z</time>
      </trkpt>
      <trkpt lat="42.585080" lon="0.041366">
        <ele>1879.6</ele>
        <time>2014-05-03T13:34:26Z</time>
      </trkpt>
      <trkpt lat="42.585085" lon="0.041502">
        <ele>1882.0</ele>
        <time>2014-05-03T13:34:40Z</time>
      </trkpt>
      <trkpt lat="42.585065" lon="0.041635">
        <ele>1883.3</ele>
        <time>2014-05-03T13:34:52Z</time>
      </trkpt>
      <trkpt lat="42.585031" lon="0.041756">
        <ele>1884.7</ele>
        <time>2014-05-03T13:35:03Z</time>
      </trkpt>
      <trkpt lat="42.584998" lon="0.041882">
        <ele>1886.2</ele>
        <time>2014-05-03T13:35:14Z</time>
      </trkpt>
      <trkpt lat="42.584958" lon="0.041992">
        <ele>1887.9</ele>
        <time>2014-05-03T13:35:25Z</time>
      </trkpt>
      <trkpt lat="42.584895" lon="0.042090">
        <ele>1888.9</ele>
        <time>2014-05-03T13:35:35Z</time>
      </trkpt>
      <trkpt lat="42.584828" lon="0.042195">
        <ele>1890.5</ele>
        <time>2014-05-03T13:35:45Z</time>
      </trkpt>
      <trkpt lat="42.584770" lon="0.042304">
        <ele>1892.3</ele>
        <time>2014-05-03T13:35:55Z</time>
      </trkpt>
      <trkpt lat="42.584705" lon="0.042400">
        <ele>1893.0</ele>
        <time>2014-05-03T13:36:05Z</time>
      </trkpt>
      <trkpt lat="42.584636" lon="0.042493">
        <ele>1894.2</ele>
        <time>2014-05-03T13:36:15Z</time>
      </trkpt>
      <trkpt lat="42.584572" lon="0.042579">
        <ele>1896.0</ele>
        <time>2014-05-03T13:36:26Z</time>
      </trkpt>
      <trkpt lat="42.584504" lon="0.042691">
        <ele>1898.0</ele>
        <time>2014-05-03T13:36:38Z</time>
      </trkpt>
      <trkpt lat="42.584449" lon="0.042796">
        <ele>1900.3</ele>
        <time>2014-05-03T13:36:49Z</time>
      </trkpt>
      <trkpt lat="42.584361" lon="0.042854">
        <ele>1903.0</ele>
        <time>2014-05-03T13:37:00Z</time>
      </trkpt>
      <trkpt lat="42.584274" lon="0.042922">
        <ele>1905.2</ele>
        <time>2014-05-03T13:37:11Z</time>
      </trkpt>
      <trkpt lat="42.584211" lon="0.043019">
        <ele>1907.1</ele>
        <time>2014-05-03T13:37:22Z</time>
      </trkpt>
      <trkpt lat="42.584203" lon="0.043138">
        <ele>1908.8</ele>
        <time>2014-05-03T13:37:32Z</time>
      </trkpt>
      <trkpt lat="42.584192" lon="0.043260">
        <ele>1910.1</ele>
        <time>2014-05-03T13:37:42Z</time>
      </trkpt>
      <trkpt lat="42.584173" lon="0.043386">
        <ele>1912.3</ele>
        <time>2014-05-03T13:37:53Z</time>
      </trkpt>
      <trkpt lat="42.584178" lon="0.043511">
        <ele>1913.9</ele>
        <time>2014-05-03T13:38:03Z</time>
      </trkpt>
      <trkpt lat="42.584209" lon="0.043637">
        <ele>1915.9</ele>
        <time>2014-05-03T13:38:14Z</time>
      </trkpt>
      <trkpt lat="42.584200" lon="0.043771">
        <ele>1918.9</ele>
        <time>2014-05-03T13:38:25Z</time>
      </trkpt>
      <trkpt lat="42.584172" lon="0.043912">
        <ele>1921.7</ele>
        <time>2014-05-03T13:38:36Z</time>
      </trkpt>
      <trkpt lat="42.584154" lon="0.044035">
        <ele>1923.9</ele>
        <time>2014-05-03T13:38:47Z</time>
      </trkpt>
      <trkpt lat="42.584147" lon="0.044166">
        <ele>1926.7</ele>
        <time>2014-05-03T13:38:58Z</time>
      </trkpt>
      <trkpt lat="42.584106" lon="0.044291">
        <ele>1929.2</ele>
        <time>2014-05-03T13:39:09Z</time>
      </trkpt>
      <trkpt lat="42.584064" lon="0.044412">
        <ele>1930.9</ele>
        <time>2014-05-03T13:39:20Z</time>
      </trkpt>
      <trkpt lat="42.584043" lon="0.044551">
        <ele>1933.2</ele>
        <time>2014-05-03T13:39:32Z</time>
      </trkpt>
      <trkpt lat="42.584030" lon="0.044670">
        <ele>1935.2</ele>
        <time>2014-05-03T13:39:43Z</time>
      </trkpt>
      <trkpt lat="42.583969" lon="0.044772">
        <ele>1938.2</ele>
        <time>2014-05-03T13:39:54Z</time>
      </trkpt>
      <trkpt lat="42.583922" lon="0.044884">
        <ele>1941.2</ele>
        <time>2014-05-03T13:40:06Z</time>
      </trkpt>
      <trkpt lat="42.583848" lon="0.044963">
        <ele>1943.7</ele>
        <time>2014-05-03T13:40:17Z</time>
      </trkpt>
      <trkpt lat="42.583764" lon="0.045023">
        <ele>1946.3</ele>
        <time>2014-05-03T13:40:28Z</time>
      </trkpt>
      <trkpt lat="42.583706" lon="0.045123">
        <ele>1951.2</ele>
        <time>2014-05-03T13:40:54Z</time>
      </trkpt>
      <trkpt lat="42.583656" lon="0.045171">
        <ele>1952.6</ele>
        <time>2014-05-03T13:42:39Z</time>
      </trkpt>
      <trkpt lat="42.583618" lon="0.045178">
        <ele>1954.6</ele>
        <time>2014-05-03T13:44:15Z</time>
      </trkpt>
      <trkpt lat="42.583570" lon="0.045084">
        <ele>1953.9</ele>
        <time>2014-05-03T13:44:26Z</time>
      </trkpt>
      <trkpt lat="42.583508" lon="0.044992">
        <ele>1952.8</ele>
        <time>2014-05-03T13:44:36Z</time>
      </trkpt>
      <trkpt lat="42.583407" lon="0.044971">
        <ele>1950.8</ele>
        <time>2014-05-03T13:44:46Z</time>
      </trkpt>
      <trkpt lat="42.583317" lon="0.045014">
        <ele>1951.8</ele>
        <time>2014-05-03T13:44:56Z</time>
      </trkpt>
      <trkpt lat="42.583268" lon="0.045105">
        <ele>1952.7</ele>
        <time>2014-05-03T13:45:06Z</time>
      </trkpt>
      <trkpt lat="42.583279" lon="0.045229">
        <ele>1953.8</ele>
        <time>2014-05-03T13:45:19Z</time>
      </trkpt>
      <trkpt lat="42.583245" lon="0.045348">
        <ele>1953.8</ele>
        <time>2014-05-03T13:45:32Z</time>
      </trkpt>
      <trkpt lat="42.583200" lon="0.045447">
        <ele>1957.3</ele>
        <time>2014-05-03T14:23:32Z</time>
      </trkpt>
      <trkpt lat="42.583154" lon="0.045430">
        <ele>1956.3</ele>
        <time>2014-05-03T14:23:59Z</time>
      </trkpt>
      <trkpt lat="42.583070" lon="0.045480">
        <ele>1955.3</ele>
        <time>2014-05-03T14:24:10Z</time>
      </trkpt>
      <trkpt lat="42.582968" lon="0.045522">
        <ele>1954.4</ele>
        <time>2014-05-03T14:24:20Z</time>
      </trkpt>
      <trkpt lat="42.582868" lon="0.045539">
        <ele>1956.0</ele>
        <time>2014-05-03T14:24:32Z</time>
      </trkpt>
      <trkpt lat="42.582767" lon="0.045534">
        <ele>1955.4</ele>
        <time>2014-05-03T14:24:44Z</time>
      </trkpt>
      <trkpt lat="42.582675" lon="0.045540">
        <ele>1954.5</ele>
        <time>2014-05-03T14:24:54Z</time>
      </trkpt>
      <trkpt lat="42.582596" lon="0.045548">
        <ele>1954.5</ele>
        <time>2014-05-03T14:25:05Z</time>
      </trkpt>
      <trkpt lat="42.582501" lon="0.045531">
        <ele>1953.9</ele>
        <time>2014-05-03T14:25:16Z</time>
      </trkpt>
      <trkpt lat="42.582434" lon="0.045450">
        <ele>1952.7</ele>
        <time>2014-05-03T14:25:28Z</time>
      </trkpt>
      <trkpt lat="42.582398" lon="0.045341">
        <ele>1952.7</ele>
        <time>2014-05-03T14:26:00Z</time>
      </trkpt>
      <trkpt lat="42.582353" lon="0.045235">
        <ele>1950.8</ele>
        <time>2014-05-03T14:26:12Z</time>
      </trkpt>
      <trkpt lat="42.582299" lon="0.045137">
        <ele>1947.3</ele>
        <time>2014-05-03T14:26:28Z</time>
      </trkpt>
      <trkpt lat="42.582236" lon="0.045053">
        <ele>1944.0</ele>
        <time>2014-05-03T14:26:42Z</time>
      </trkpt>
      <trkpt lat="42.582137" lon="0.045078">
        <ele>1942.5</ele>
        <time>2014-05-03T14:26:53Z</time>
      </trkpt>
      <trkpt lat="42.582051" lon="0.045107">
        <ele>1942.7</ele>
        <time>2014-05-03T14:27:03Z</time>
      </trkpt>
      <trkpt lat="42.581963" lon="0.045148">
        <ele>1942.2</ele>
        <time>2014-05-03T14:27:13Z</time>
      </trkpt>
      <trkpt lat="42.581874" lon="0.045212">
        <ele>1941.8</ele>
        <time>2014-05-03T14:27:24Z</time>
      </trkpt>
      <trkpt lat="42.581783" lon="0.045273">
        <ele>1941.8</ele>
        <time>2014-05-03T14:27:34Z</time>
      </trkpt>
      <trkpt lat="42.581702" lon="0.045338">
        <ele>1942.3</ele>
        <time>2014-05-03T14:27:45Z</time>
      </trkpt>
      <trkpt lat="42.581611" lon="0.045383">
        <ele>1942.9</ele>
        <time>2014-05-03T14:27:58Z</time>
      </trkpt>
      <trkpt lat="42.581513" lon="0.045396">
        <ele>1943.0</ele>
        <time>2014-05-03T14:28:09Z</time>
      </trkpt>
      <trkpt lat="42.581422" lon="0.045387">
        <ele>1942.3</ele>
        <time>2014-05-03T14:28:20Z</time>
      </trkpt>
      <trkpt lat="42.581363" lon="0.045313">
        <ele>1939.9</ele>
        <time>2014-05-03T14:28:32Z</time>
      </trkpt>
      <trkpt lat="42.581300" lon="0.045248">
        <ele>1937.3</ele>
        <time>2014-05-03T14:28:47Z</time>
      </trkpt>
      <trkpt lat="42.581203" lon="0.045238">
        <ele>1934.2</ele>
        <time>2014-05-03T14:29:01Z</time>
      </trkpt>
      <trkpt lat="42.581125" lon="0.045301">
        <ele>1934.2</ele>
        <time>2014-05-03T14:29:12Z</time>
      </trkpt>
      <trkpt lat="42.581070" lon="0.045403">
        <ele>1935.1</ele>
        <time>2014-05-03T14:29:23Z</time>
      </trkpt>
      <trkpt lat="42.581004" lon="0.045507">
        <ele>1936.7</ele>
        <time>2014-05-03T14:29:34Z</time>
      </trkpt>
      <trkpt lat="42.580947" lon="0.045616">
        <ele>1938.1</ele>
        <time>2014-05-03T14:29:46Z</time>
      </trkpt>
      <trkpt lat="42.580883" lon="0.045728">
        <ele>1938.5</ele>
        <time>2014-05-03T14:29:58Z</time>
      </trkpt>
      <trkpt lat="42.580828" lon="0.045843">
        <ele>1939.4</ele>
        <time>2014-05-03T14:30:08Z</time>
      </trkpt>
      <trkpt lat="42.580799" lon="0.045971">
        <ele>1940.3</ele>
        <time>2014-05-03T14:30:18Z</time>
      </trkpt>
      <trkpt lat="42.580751" lon="0.046056">
        <ele>1942.2</ele>
        <time>2014-05-03T14:30:47Z</time>
      </trkpt>
      <trkpt lat="42.580737" lon="0.045982">
        <ele>1941.1</ele>
        <time>2014-05-03T14:33:13Z</time>
      </trkpt>
      <trkpt lat="42.580765" lon="0.045887">
        <ele>1939.6</ele>
        <time>2014-05-03T14:33:34Z</time>
      </trkpt>
      <trkpt lat="42.580784" lon="0.045771">
        <ele>1939.4</ele>
        <time>2014-05-03T14:33:45Z</time>
      </trkpt>
      <trkpt lat="42.580803" lon="0.045650">
        <ele>1937.4</ele>
        <time>2014-05-03T14:34:01Z</time>
      </trkpt>
      <trkpt lat="42.580807" lon="0.045526">
        <ele>1935.3</ele>
        <time>2014-05-03T14:34:13Z</time>
      </trkpt>
      <trkpt lat="42.580831" lon="0.045404">
        <ele>1933.2</ele>
        <time>2014-05-03T14:34:26Z</time>
      </trkpt>
      <trkpt lat="42.580885" lon="0.045299">
        <ele>1931.3</ele>
        <time>2014-05-03T14:34:38Z</time>
      </trkpt>
      <trkpt lat="42.580913" lon="0.045172">
        <ele>1930.2</ele>
        <time>2014-05-03T14:34:51Z</time>
      </trkpt>
      <trkpt lat="42.580952" lon="0.045063">
        <ele>1928.6</ele>
        <time>2014-05-03T14:35:04Z</time>
      </trkpt>
      <trkpt lat="42.580998" lon="0.044948">
        <ele>1928.2</ele>
        <time>2014-05-03T14:35:16Z</time>
      </trkpt>
      <trkpt lat="42.581009" lon="0.044817">
        <ele>1926.5</ele>
        <time>2014-05-03T14:35:28Z</time>
      </trkpt>
      <trkpt lat="42.581026" lon="0.044699">
        <ele>1924.1</ele>
        <time>2014-05-03T14:35:41Z</time>
      </trkpt>
      <trkpt lat="42.581058" lon="0.044595">
        <ele>1921.0</ele>
        <time>2014-05-03T14:35:55Z</time>
      </trkpt>
      <trkpt lat="42.581054" lon="0.044480">
        <ele>1919.5</ele>
        <time>2014-05-03T14:36:08Z</time>
      </trkpt>
      <trkpt lat="42.581054" lon="0.044368">
        <ele>1917.0</ele>
        <time>2014-05-03T14:36:23Z</time>
      </trkpt>
      <trkpt lat="42.581055" lon="0.044247">
        <ele>1913.0</ele>
        <time>2014-05-03T14:36:40Z</time>
      </trkpt>
      <trkpt lat="42.581109" lon="0.044137">
        <ele>1909.5</ele>
        <time>2014-05-03T14:36:54Z</time>
      </trkpt>
      <trkpt lat="42.581149" lon="0.044016">
        <ele>1906.8</ele>
        <time>2014-05-03T14:37:04Z</time>
      </trkpt>
      <trkpt lat="42.581196" lon="0.043895">
        <ele>1904.6</ele>
        <time>2014-05-03T14:37:14Z</time>
      </trkpt>
      <trkpt lat="42.581232" lon="0.043785">
        <ele>1902.7</ele>
        <time>2014-05-03T14:37:24Z</time>
      </trkpt>
      <trkpt lat="42.581288" lon="0.043687">
        <ele>1902.4</ele>
        <time>2014-05-03T14:37:36Z</time>
      </trkpt>
      <trkpt lat="42.581323" lon="0.043557">
        <ele>1901.6</ele>
        <time>2014-05-03T14:37:51Z</time>
      </trkpt>
      <trkpt lat="42.581367" lon="0.043428">
        <ele>1899.5</ele>
        <time>2014-05-03T14:38:04Z</time>
      </trkpt>
      <trkpt lat="42.581366" lon="0.043318">
        <ele>1897.4</ele>
        <time>2014-05-03T14:38:15Z</time>
      </trkpt>
      <trkpt lat="42.581312" lon="0.043230">
        <ele>1895.6</ele>
        <time>2014-05-03T14:38:26Z</time>
      </trkpt>
      <trkpt lat="42.581321" lon="0.043103">
        <ele>1892.7</ele>
        <time>2014-05-03T14:38:38Z</time>
      </trkpt>
      <trkpt lat="42.581354" lon="0.043003">
        <ele>1889.8</ele>
        <time>2014-05-03T14:39:00Z</time>
      </trkpt>
      <trkpt lat="42.581429" lon="0.042913">
        <ele>1888.5</ele>
        <time>2014-05-03T14:39:18Z</time>
      </trkpt>
      <trkpt lat="42.581485" lon="0.042820">
        <ele>1888.3</ele>
        <time>2014-05-03T14:39:29Z</time>
      </trkpt>
      <trkpt lat="42.581542" lon="0.042728">
        <ele>1887.1</ele>
        <time>2014-05-03T14:39:40Z</time>
      </trkpt>
      <trkpt lat="42.581594" lon="0.042612">
        <ele>1886.9</ele>
        <time>2014-05-03T14:39:53Z</time>
      </trkpt>
      <trkpt lat="42.581662" lon="0.042520">
        <ele>1885.7</ele>
        <time>2014-05-03T14:40:06Z</time>
      </trkpt>
      <trkpt lat="42.581758" lon="0.042476">
        <ele>1886.2</ele>
        <time>2014-05-03T14:40:35Z</time>
      </trkpt>
      <trkpt lat="42.581841" lon="0.042426">
        <ele>1886.5</ele>
        <time>2014-05-03T14:40:46Z</time>
      </trkpt>
      <trkpt lat="42.581917" lon="0.042369">
        <ele>1887.3</ele>
        <time>2014-05-03T14:40:56Z</time>
      </trkpt>
      <trkpt lat="42.581998" lon="0.042324">
        <ele>1887.4</ele>
        <time>2014-05-03T14:41:06Z</time>
      </trkpt>
      <trkpt lat="42.582074" lon="0.042266">
        <ele>1888.3</ele>
        <time>2014-05-03T14:41:16Z</time>
      </trkpt>
      <trkpt lat="42.582157" lon="0.042217">
        <ele>1888.2</ele>
        <time>2014-05-03T14:41:26Z</time>
      </trkpt>
      <trkpt lat="42.582242" lon="0.042164">
        <ele>1889.2</ele>
        <time>2014-05-03T14:41:37Z</time>
      </trkpt>
      <trkpt lat="42.582329" lon="0.042100">
        <ele>1889.7</ele>
        <time>2014-05-03T14:41:49Z</time>
      </trkpt>
      <trkpt lat="42.582418" lon="0.042066">
        <ele>1890.5</ele>
        <time>2014-05-03T14:42:01Z</time>
      </trkpt>
      <trkpt lat="42.582496" lon="0.042023">
        <ele>1891.6</ele>
        <time>2014-05-03T14:42:14Z</time>
      </trkpt>
      <trkpt lat="42.582575" lon="0.041973">
        <ele>1892.1</ele>
        <time>2014-05-03T14:42:28Z</time>
      </trkpt>
      <trkpt lat="42.582643" lon="0.041897">
        <ele>1892.5</ele>
        <time>2014-05-03T14:42:42Z</time>
      </trkpt>
      <trkpt lat="42.582654" lon="0.041773">
        <ele>1891.5</ele>
        <time>2014-05-03T14:42:59Z</time>
      </trkpt>
      <trkpt lat="42.582717" lon="0.041676">
        <ele>1889.8</ele>
        <time>2014-05-03T14:43:07Z</time>
      </trkpt>
      <trkpt lat="42.582793" lon="0.041618">
        <ele>1889.5</ele>
        <time>2014-05-03T14:43:18Z</time>
      </trkpt>
      <trkpt lat="42.582869" lon="0.041542">
        <ele>1890.4</ele>
        <time>2014-05-03T14:43:31Z</time>
      </trkpt>
      <trkpt lat="42.582932" lon="0.041439">
        <ele>1890.9</ele>
        <time>2014-05-03T14:43:43Z</time>
      </trkpt>
      <trkpt lat="42.583015" lon="0.041382">
        <ele>1888.7</ele>
        <time>2014-05-03T14:43:55Z</time>
      </trkpt>
      <trkpt lat="42.583089" lon="0.041295">
        <ele>1889.4</ele>
        <time>2014-05-03T14:44:08Z</time>
      </trkpt>
      <trkpt lat="42.583168" lon="0.041190">
        <ele>1890.1</ele>
        <time>2014-05-03T14:44:21Z</time>
      </trkpt>
      <trkpt lat="42.583252" lon="0.041136">
        <ele>1889.7</ele>
        <time>2014-05-03T14:44:31Z</time>
      </trkpt>
      <trkpt lat="42.583339" lon="0.041096">
        <ele>1890.3</ele>
        <time>2014-05-03T14:44:42Z</time>
      </trkpt>
      <trkpt lat="42.583399" lon="0.041065">
        <ele>1891.4</ele>
        <time>2014-05-03T14:45:00Z</time>
      </trkpt>
      <trkpt lat="42.583471" lon="0.040981">
        <ele>1891.1</ele>
        <time>2014-05-03T14:45:08Z</time>
      </trkpt>
      <trkpt lat="42.583522" lon="0.040891">
        <ele>1890.4</ele>
        <time>2014-05-03T14:45:20Z</time>
      </trkpt>
      <trkpt lat="42.583578" lon="0.040799">
        <ele>1889.2</ele>
        <time>2014-05-03T14:45:30Z</time>
      </trkpt>
      <trkpt lat="42.583660" lon="0.040773">
        <ele>1887.8</ele>
        <time>2014-05-03T14:46:02Z</time>
      </trkpt>
      <trkpt lat="42.583759" lon="0.040740">
        <ele>1889.3</ele>
        <time>2014-05-03T14:46:11Z</time>
      </trkpt>
      <trkpt lat="42.583853" lon="0.040714">
        <ele>1890.7</ele>
        <time>2014-05-03T14:46:21Z</time>
      </trkpt>
      <trkpt lat="42.583942" lon="0.040696">
        <ele>1892.2</ele>
        <time>2014-05-03T14:46:31Z</time>
      </trkpt>
      <trkpt lat="42.584022" lon="0.040714">
        <ele>1893.4</ele>
        <time>2014-05-03T14:46:42Z</time>
      </trkpt>
      <trkpt lat="42.584121" lon="0.040696">
        <ele>1895.1</ele>
        <time>2014-05-03T14:46:53Z</time>
      </trkpt>
      <trkpt lat="42.584195" lon="0.040670">
        <ele>1897.3</ele>
        <time>2014-05-03T14:47:08Z</time>
      </trkpt>
      <trkpt lat="42.584312" lon="0.040612">
        <ele>1879.7</ele>
        <time>2014-05-03T14:47:16Z</time>
      </trkpt>
      <trkpt lat="42.584484" lon="0.040444">
        <ele>1874.5</ele>
        <time>2014-05-03T14:47:24Z</time>
      </trkpt>
      <trkpt lat="42.584672" lon="0.040444">
        <ele>1869.9</ele>
        <time>2014-05-03T14:47:34Z</time>
      </trkpt>
      <trkpt lat="42.584968" lon="0.040474">
        <ele>1862.9</ele>
        <time>2014-05-03T14:47:46Z</time>
      </trkpt>
      <trkpt lat="42.585161" lon="0.040474">
        <ele>1855.8</ele>
        <time>2014-05-03T14:47:56Z</time>
      </trkpt>
      <trkpt lat="42.585393" lon="0.040393">
        <ele>1846.6</ele>
        <time>2014-05-03T14:48:05Z</time>
      </trkpt>
      <trkpt lat="42.585490" lon="0.039977">
        <ele>1841.2</ele>
        <time>2014-05-03T14:48:16Z</time>
      </trkpt>
      <trkpt lat="42.585561" lon="0.039646">
        <ele>1834.9</ele>
        <time>2014-05-03T14:51:11Z</time>
      </trkpt>
      <trkpt lat="42.585531" lon="0.039333">
        <ele>1832.6</ele>
        <time>2014-05-03T14:51:23Z</time>
      </trkpt>
      <trkpt lat="42.585569" lon="0.039218">
        <ele>1830.1</ele>
        <time>2014-05-03T14:51:36Z</time>
      </trkpt>
      <trkpt lat="42.585608" lon="0.039098">
        <ele>1827.4</ele>
        <time>2014-05-03T14:52:54Z</time>
      </trkpt>
      <trkpt lat="42.585720" lon="0.038912">
        <ele>1822.4</ele>
        <time>2014-05-03T14:53:09Z</time>
      </trkpt>
      <trkpt lat="42.585797" lon="0.038681">
        <ele>1818.6</ele>
        <time>2014-05-03T14:53:22Z</time>
      </trkpt>
      <trkpt lat="42.585819" lon="0.038349">
        <ele>1816.4</ele>
        <time>2014-05-03T14:53:37Z</time>
      </trkpt>
      <trkpt lat="42.585879" lon="0.038054">
        <ele>1813.4</ele>
        <time>2014-05-03T14:53:50Z</time>
      </trkpt>
      <trkpt lat="42.585954" lon="0.037722">
        <ele>1810.3</ele>
        <time>2014-05-03T14:54:02Z</time>
      </trkpt>
      <trkpt lat="42.586074" lon="0.037514">
        <ele>1807.8</ele>
        <time>2014-05-03T14:54:13Z</time>
      </trkpt>
      <trkpt lat="42.586291" lon="0.037107">
        <ele>1801.8</ele>
        <time>2014-05-03T14:54:26Z</time>
      </trkpt>
      <trkpt lat="42.586475" lon="0.036831">
        <ele>1798.2</ele>
        <time>2014-05-03T14:59:49Z</time>
      </trkpt>
      <trkpt lat="42.586566" lon="0.036607">
        <ele>1796.3</ele>
        <time>2014-05-03T15:00:01Z</time>
      </trkpt>
      <trkpt lat="42.586747" lon="0.036395">
        <ele>1796.8</ele>
        <time>2014-05-03T15:00:12Z</time>
      </trkpt>
      <trkpt lat="42.586822" lon="0.036059">
        <ele>1797.8</ele>
        <time>2014-05-03T15:00:22Z</time>
      </trkpt>
      <trkpt lat="42.586781" lon="0.035658">
        <ele>1796.6</ele>
        <time>2014-05-03T15:00:32Z</time>
      </trkpt>
      <trkpt lat="42.586699" lon="0.035364">
        <ele>1794.3</ele>
        <time>2014-05-03T15:00:48Z</time>
      </trkpt>
      <trkpt lat="42.586629" lon="0.035172">
        <ele>1794.5</ele>
        <time>2014-05-03T15:00:59Z</time>
      </trkpt>
      <trkpt lat="42.586585" lon="0.035081">
        <ele>1791.5</ele>
        <time>2014-05-03T15:01:10Z</time>
      </trkpt>
      <trkpt lat="42.586568" lon="0.034980">
        <ele>1789.3</ele>
        <time>2014-05-03T15:01:23Z</time>
      </trkpt>
      <trkpt lat="42.586572" lon="0.034865">
        <ele>1786.1</ele>
        <time>2014-05-03T15:01:38Z</time>
      </trkpt>
      <trkpt lat="42.586541" lon="0.034754">
        <ele>1782.9</ele>
        <time>2014-05-03T15:01:49Z</time>
      </trkpt>
      <trkpt lat="42.586502" lon="0.034631">
        <ele>1778.7</ele>
        <time>2014-05-03T15:02:01Z</time>
      </trkpt>
      <trkpt lat="42.586472" lon="0.034498">
        <ele>1775.4</ele>
        <time>2014-05-03T15:02:13Z</time>
      </trkpt>
      <trkpt lat="42.586460" lon="0.034374">
        <ele>1773.4</ele>
        <time>2014-05-03T15:02:24Z</time>
      </trkpt>
      <trkpt lat="42.586384" lon="0.034284">
        <ele>1771.5</ele>
        <time>2014-05-03T15:02:34Z</time>
      </trkpt>
      <trkpt lat="42.586310" lon="0.034209">
        <ele>1769.6</ele>
        <time>2014-05-03T15:02:43Z</time>
      </trkpt>
      <trkpt lat="42.586251" lon="0.034115">
        <ele>1768.1</ele>
        <time>2014-05-03T15:02:51Z</time>
      </trkpt>
      <trkpt lat="42.586201" lon="0.034008">
        <ele>1765.9</ele>
        <time>2014-05-03T15:03:01Z</time>
      </trkpt>
      <trkpt lat="42.586152" lon="0.033907">
        <ele>1764.0</ele>
        <time>2014-05-03T15:03:09Z</time>
      </trkpt>
      <trkpt lat="42.586103" lon="0.033811">
        <ele>1762.2</ele>
        <time>2014-05-03T15:03:18Z</time>
      </trkpt>
      <trkpt lat="42.586093" lon="0.033692">
        <ele>1760.4</ele>
        <time>2014-05-03T15:03:27Z</time>
      </trkpt>
      <trkpt lat="42.586076" lon="0.033578">
        <ele>1758.3</ele>
        <time>2014-05-03T15:03:37Z</time>
      </trkpt>
      <trkpt lat="42.586074" lon="0.033461">
        <ele>1756.8</ele>
        <time>2014-05-03T15:03:47Z</time>
      </trkpt>
      <trkpt lat="42.586052" lon="0.033332">
        <ele>1753.8</ele>
        <time>2014-05-03T15:04:03Z</time>
      </trkpt>
      <trkpt lat="42.586012" lon="0.033217">
        <ele>1751.8</ele>
        <time>2014-05-03T15:04:14Z</time>
      </trkpt>
      <trkpt lat="42.585960" lon="0.033112">
        <ele>1749.9</ele>
        <time>2014-05-03T15:04:28Z</time>
      </trkpt>
      <trkpt lat="42.585931" lon="0.033003">
        <ele>1748.7</ele>
        <time>2014-05-03T15:04:39Z</time>
      </trkpt>
      <trkpt lat="42.585926" lon="0.032892">
        <ele>1747.7</ele>
        <time>2014-05-03T15:04:48Z</time>
      </trkpt>
      <trkpt lat="42.585930" lon="0.032763">
        <ele>1745.3</ele>
        <time>2014-05-03T15:04:59Z</time>
      </trkpt>
      <trkpt lat="42.585944" lon="0.032636">
        <ele>1741.8</ele>
        <time>2014-05-03T15:05:11Z</time>
      </trkpt>
      <trkpt lat="42.585918" lon="0.032509">
        <ele>1739.6</ele>
        <time>2014-05-03T15:05:25Z</time>
      </trkpt>
      <trkpt lat="42.585895" lon="0.032379">
        <ele>1738.3</ele>
        <time>2014-05-03T15:05:36Z</time>
      </trkpt>
      <trkpt lat="42.585871" lon="0.032250">
        <ele>1735.7</ele>
        <time>2014-05-03T15:05:49Z</time>
      </trkpt>
      <trkpt lat="42.585864" lon="0.032124">
        <ele>1733.4</ele>
        <time>2014-05-03T15:06:00Z</time>
      </trkpt>
      <trkpt lat="42.585875" lon="0.032010">
        <ele>1731.3</ele>
        <time>2014-05-03T15:06:12Z</time>
      </trkpt>
      <trkpt lat="42.585845" lon="0.031886">
        <ele>1729.8</ele>
        <time>2014-05-03T15:06:23Z</time>
      </trkpt>
      <trkpt lat="42.585803" lon="0.031768">
        <ele>1727.3</ele>
        <time>2014-05-03T15:06:35Z</time>
      </trkpt>
      <trkpt lat="42.585771" lon="0.031650">
        <ele>1725.4</ele>
        <time>2014-05-03T15:06:47Z</time>
      </trkpt>
      <trkpt lat="42.585664" lon="0.031657">
        <ele>1723.6</ele>
        <time>2014-05-03T15:07:00Z</time>
      </trkpt>
      <trkpt lat="42.585590" lon="0.031585">
        <ele>1721.0</ele>
        <time>2014-05-03T15:07:14Z</time>
      </trkpt>
      <trkpt lat="42.585598" lon="0.031455">
        <ele>1719.5</ele>
        <time>2014-05-03T15:07:25Z</time>
      </trkpt>
      <trkpt lat="42.585636" lon="0.031347">
        <ele>1718.8</ele>
        <time>2014-05-03T15:07:34Z</time>
      </trkpt>
      <trkpt lat="42.585662" lon="0.031220">
        <ele>1717.5</ele>
        <time>2014-05-03T15:07:44Z</time>
      </trkpt>
      <trkpt lat="42.585703" lon="0.031102">
        <ele>1716.5</ele>
        <time>2014-05-03T15:07:54Z</time>
      </trkpt>
      <trkpt lat="42.585634" lon="0.031050">
        <ele>1714.7</ele>
        <time>2014-05-03T15:08:05Z</time>
      </trkpt>
      <trkpt lat="42.585543" lon="0.031084">
        <ele>1713.3</ele>
        <time>2014-05-03T15:08:17Z</time>
      </trkpt>
      <trkpt lat="42.585489" lon="0.030998">
        <ele>1710.8</ele>
        <time>2014-05-03T15:08:29Z</time>
      </trkpt>
      <trkpt lat="42.585427" lon="0.030937">
        <ele>1708.3</ele>
        <time>2014-05-03T15:08:41Z</time>
      </trkpt>
      <trkpt lat="42.585337" lon="0.030967">
        <ele>1706.1</ele>
        <time>2014-05-03T15:08:53Z</time>
      </trkpt>
      <trkpt lat="42.585268" lon="0.030989">
        <ele>1704.0</ele>
        <time>2014-05-03T15:09:05Z</time>
      </trkpt>
      <trkpt lat="42.585180" lon="0.030982">
        <ele>1700.9</ele>
        <time>2014-05-03T15:09:19Z</time>
      </trkpt>
      <trkpt lat="42.585089" lon="0.031004">
        <ele>1698.8</ele>
        <time>2014-05-03T15:09:33Z</time>
      </trkpt>
      <trkpt lat="42.584991" lon="0.031013">
        <ele>1697.6</ele>
        <time>2014-05-03T15:09:43Z</time>
      </trkpt>
      <trkpt lat="42.584893" lon="0.031030">
        <ele>1695.7</ele>
        <time>2014-05-03T15:09:56Z</time>
      </trkpt>
      <trkpt lat="42.584797" lon="0.031034">
        <ele>1693.9</ele>
        <time>2014-05-03T15:10:09Z</time>
      </trkpt>
      <trkpt lat="42.584694" lon="0.031005">
        <ele>1691.7</ele>
        <time>2014-05-03T15:10:21Z</time>
      </trkpt>
      <trkpt lat="42.584609" lon="0.031021">
        <ele>1689.3</ele>
        <time>2014-05-03T15:10:34Z</time>
      </trkpt>
      <trkpt lat="42.584526" lon="0.031006">
        <ele>1687.0</ele>
        <time>2014-05-03T15:10:46Z</time>
      </trkpt>
      <trkpt lat="42.584445" lon="0.030958">
        <ele>1684.4</ele>
        <time>2014-05-03T15:11:01Z</time>
      </trkpt>
      <trkpt lat="42.584341" lon="0.030958">
        <ele>1682.0</ele>
        <time>2014-05-03T15:11:16Z</time>
      </trkpt>
      <trkpt lat="42.584256" lon="0.030916">
        <ele>1679.3</ele>
        <time>2014-05-03T15:11:38Z</time>
      </trkpt>
      <trkpt lat="42.584171" lon="0.030832">
        <ele>1677.7</ele>
        <time>2014-05-03T15:11:53Z</time>
      </trkpt>
      <trkpt lat="42.584114" lon="0.030775">
        <ele>1675.4</ele>
        <time>2014-05-03T15:12:06Z</time>
      </trkpt>
      <trkpt lat="42.584156" lon="0.030658">
        <ele>1672.9</ele>
        <time>2014-05-03T15:12:19Z</time>
      </trkpt>
      <trkpt lat="42.584181" lon="0.030553">
        <ele>1669.4</ele>
        <time>2014-05-03T15:12:35Z</time>
      </trkpt>
      <trkpt lat="42.584101" lon="0.030528">
        <ele>1667.2</ele>
        <time>2014-05-03T15:12:47Z</time>
      </trkpt>
      <trkpt lat="42.584039" lon="0.030484">
        <ele>1664.8</ele>
        <time>2014-05-03T15:12:57Z</time>
      </trkpt>
      <trkpt lat="42.584024" lon="0.030354">
        <ele>1664.1</ele>
        <time>2014-05-03T15:13:11Z</time>
      </trkpt>
      <trkpt lat="42.583959" lon="0.030325">
        <ele>1663.9</ele>
        <time>2014-05-03T15:13:24Z</time>
      </trkpt>
      <trkpt lat="42.583871" lon="0.030302">
        <ele>1662.0</ele>
        <time>2014-05-03T15:13:37Z</time>
      </trkpt>
      <trkpt lat="42.583781" lon="0.030324">
        <ele>1660.4</ele>
        <time>2014-05-03T15:13:50Z</time>
      </trkpt>
      <trkpt lat="42.583680" lon="0.030400">
        <ele>1659.8</ele>
        <time>2014-05-03T15:14:03Z</time>
      </trkpt>
      <trkpt lat="42.583571" lon="0.030432">
        <ele>1658.3</ele>
        <time>2014-05-03T15:14:17Z</time>
      </trkpt>
      <trkpt lat="42.583475" lon="0.030476">
        <ele>1657.0</ele>
        <time>2014-05-03T15:14:32Z</time>
      </trkpt>
      <trkpt lat="42.583381" lon="0.030518">
        <ele>1655.5</ele>
        <time>2014-05-03T15:14:45Z</time>
      </trkpt>
      <trkpt lat="42.583271" lon="0.030567">
        <ele>1654.5</ele>
        <time>2014-05-03T15:14:57Z</time>
      </trkpt>
      <trkpt lat="42.583166" lon="0.030592">
        <ele>1652.4</ele>
        <time>2014-05-03T15:15:08Z</time>
      </trkpt>
      <trkpt lat="42.583071" lon="0.030613">
        <ele>1651.1</ele>
        <time>2014-05-03T15:15:18Z</time>
      </trkpt>
      <trkpt lat="42.582976" lon="0.030597">
        <ele>1649.1</ele>
        <time>2014-05-03T15:15:28Z</time>
      </trkpt>
      <trkpt lat="42.582879" lon="0.030581">
        <ele>1647.0</ele>
        <time>2014-05-03T15:15:38Z</time>
      </trkpt>
      <trkpt lat="42.582790" lon="0.030554">
        <ele>1644.9</ele>
        <time>2014-05-03T15:15:48Z</time>
      </trkpt>
      <trkpt lat="42.582703" lon="0.030529">
        <ele>1642.7</ele>
        <time>2014-05-03T15:15:58Z</time>
      </trkpt>
      <trkpt lat="42.582612" lon="0.030520">
        <ele>1640.9</ele>
        <time>2014-05-03T15:16:09Z</time>
      </trkpt>
      <trkpt lat="42.582523" lon="0.030542">
        <ele>1639.7</ele>
        <time>2014-05-03T15:16:19Z</time>
      </trkpt>
      <trkpt lat="42.582428" lon="0.030521">
        <ele>1637.5</ele>
        <time>2014-05-03T15:16:31Z</time>
      </trkpt>
      <trkpt lat="42.582340" lon="0.030448">
        <ele>1636.2</ele>
        <time>2014-05-03T15:16:43Z</time>
      </trkpt>
      <trkpt lat="42.582284" lon="0.030346">
        <ele>1634.6</ele>
        <time>2014-05-03T15:16:54Z</time>
      </trkpt>
      <trkpt lat="42.582210" lon="0.030294">
        <ele>1631.5</ele>
        <time>2014-05-03T15:17:08Z</time>
      </trkpt>
      <trkpt lat="42.582166" lon="0.030177">
        <ele>1630.6</ele>
        <time>2014-05-03T15:17:28Z</time>
      </trkpt>
      <trkpt lat="42.582085" lon="0.030120">
        <ele>1630.1</ele>
        <time>2014-05-03T15:17:40Z</time>
      </trkpt>
      <trkpt lat="42.582022" lon="0.030050">
        <ele>1628.7</ele>
        <time>2014-05-03T15:17:51Z</time>
      </trkpt>
      <trkpt lat="42.581958" lon="0.029956">
        <ele>1626.6</ele>
        <time>2014-05-03T15:18:03Z</time>
      </trkpt>
      <trkpt lat="42.581877" lon="0.029911">
        <ele>1625.0</ele>
        <time>2014-05-03T15:18:15Z</time>
      </trkpt>
      <trkpt lat="42.581791" lon="0.029950">
        <ele>1622.6</ele>
        <time>2014-05-03T15:18:29Z</time>
      </trkpt>
      <trkpt lat="42.581732" lon="0.029876">
        <ele>1620.6</ele>
        <time>2014-05-03T15:18:40Z</time>
      </trkpt>
      <trkpt lat="42.581748" lon="0.029745">
        <ele>1618.4</ele>
        <time>2014-05-03T15:18:50Z</time>
      </trkpt>
      <trkpt lat="42.581688" lon="0.029652">
        <ele>1617.1</ele>
        <time>2014-05-03T15:19:01Z</time>
      </trkpt>
      <trkpt lat="42.581627" lon="0.029564">
        <ele>1615.3</ele>
        <time>2014-05-03T15:19:12Z</time>
      </trkpt>
      <trkpt lat="42.581589" lon="0.029468">
        <ele>1613.2</ele>
        <time>2014-05-03T15:19:23Z</time>
      </trkpt>
      <trkpt lat="42.581514" lon="0.029405">
        <ele>1610.4</ele>
        <time>2014-05-03T15:19:46Z</time>
      </trkpt>
      <trkpt lat="42.581458" lon="0.029294">
        <ele>1608.2</ele>
        <time>2014-05-03T15:19:59Z</time>
      </trkpt>
      <trkpt lat="42.581405" lon="0.029197">
        <ele>1606.7</ele>
        <time>2014-05-03T15:20:10Z</time>
      </trkpt>
      <trkpt lat="42.581341" lon="0.029121">
        <ele>1604.5</ele>
        <time>2014-05-03T15:20:22Z</time>
      </trkpt>
      <trkpt lat="42.581295" lon="0.029026">
        <ele>1602.5</ele>
        <time>2014-05-03T15:20:32Z</time>
      </trkpt>
      <trkpt lat="42.581245" lon="0.028927">
        <ele>1600.7</ele>
        <time>2014-05-03T15:20:43Z</time>
      </trkpt>
      <trkpt lat="42.581157" lon="0.028892">
        <ele>1598.5</ele>
        <time>2014-05-03T15:20:56Z</time>
      </trkpt>
      <trkpt lat="42.581139" lon="0.028752">
        <ele>1596.6</ele>
        <time>2014-05-03T15:21:07Z</time>
      </trkpt>
      <trkpt lat="42.581088" lon="0.028656">
        <ele>1594.5</ele>
        <time>2014-05-03T15:21:20Z</time>
      </trkpt>
      <trkpt lat="42.581011" lon="0.028639">
        <ele>1591.8</ele>
        <time>2014-05-03T15:21:35Z</time>
      </trkpt>
      <trkpt lat="42.580972" lon="0.028524">
        <ele>1589.4</ele>
        <time>2014-05-03T15:21:49Z</time>
      </trkpt>
      <trkpt lat="42.580948" lon="0.028399">
        <ele>1587.7</ele>
        <time>2014-05-03T15:22:01Z</time>
      </trkpt>
      <trkpt lat="42.580917" lon="0.028285">
        <ele>1586.1</ele>
        <time>2014-05-03T15:22:12Z</time>
      </trkpt>
      <trkpt lat="42.580915" lon="0.028155">
        <ele>1584.5</ele>
        <time>2014-05-03T15:22:24Z</time>
      </trkpt>
      <trkpt lat="42.580903" lon="0.028024">
        <ele>1582.6</ele>
        <time>2014-05-03T15:22:35Z</time>
      </trkpt>
      <trkpt lat="42.580879" lon="0.027889">
        <ele>1580.6</ele>
        <time>2014-05-03T15:22:48Z</time>
      </trkpt>
      <trkpt lat="42.580878" lon="0.027759">
        <ele>1578.6</ele>
        <time>2014-05-03T15:23:00Z</time>
      </trkpt>
      <trkpt lat="42.580871" lon="0.027637">
        <ele>1577.0</ele>
        <time>2014-05-03T15:23:11Z</time>
      </trkpt>
      <trkpt lat="42.580859" lon="0.027517">
        <ele>1575.8</ele>
        <time>2014-05-03T15:23:23Z</time>
      </trkpt>
      <trkpt lat="42.580854" lon="0.027392">
        <ele>1574.0</ele>
        <time>2014-05-03T15:23:36Z</time>
      </trkpt>
      <trkpt lat="42.580834" lon="0.027273">
        <ele>1572.7</ele>
        <time>2014-05-03T15:23:49Z</time>
      </trkpt>
      <trkpt lat="42.580808" lon="0.027144">
        <ele>1571.7</ele>
        <time>2014-05-03T15:24:04Z</time>
      </trkpt>
      <trkpt lat="42.580741" lon="0.027159">
        <ele>1567.6</ele>
        <time>2014-05-03T15:24:20Z</time>
      </trkpt>
      <trkpt lat="42.580694" lon="0.027139">
        <ele>1565.0</ele>
        <time>2014-05-03T15:24:39Z</time>
      </trkpt>
      <trkpt lat="42.580697" lon="0.027002">
        <ele>1563.4</ele>
        <time>2014-05-03T15:24:52Z</time>
      </trkpt>
      <trkpt lat="42.580706" lon="0.026875">
        <ele>1562.6</ele>
        <time>2014-05-03T15:25:03Z</time>
      </trkpt>
      <trkpt lat="42.580662" lon="0.026759">
        <ele>1561.2</ele>
        <time>2014-05-03T15:25:13Z</time>
      </trkpt>
      <trkpt lat="42.580666" lon="0.026626">
        <ele>1559.7</ele>
        <time>2014-05-03T15:25:23Z</time>
      </trkpt>
      <trkpt lat="42.580697" lon="0.026507">
        <ele>1558.0</ele>
        <time>2014-05-03T15:25:34Z</time>
      </trkpt>
      <trkpt lat="42.580711" lon="0.026399">
        <ele>1557.4</ele>
        <time>2014-05-03T15:25:49Z</time>
      </trkpt>
      <trkpt lat="42.580685" lon="0.026273">
        <ele>1555.7</ele>
        <time>2014-05-03T15:26:01Z</time>
      </trkpt>
      <trkpt lat="42.580622" lon="0.026145">
        <ele>1553.0</ele>
        <time>2014-05-03T15:26:14Z</time>
      </trkpt>
      <trkpt lat="42.580591" lon="0.026016">
        <ele>1550.7</ele>
        <time>2014-05-03T15:26:26Z</time>
      </trkpt>
      <trkpt lat="42.580567" lon="0.025886">
        <ele>1548.7</ele>
        <time>2014-05-03T15:26:39Z</time>
      </trkpt>
      <trkpt lat="42.580550" lon="0.025755">
        <ele>1546.3</ele>
        <time>2014-05-03T15:26:52Z</time>
      </trkpt>
      <trkpt lat="42.580537" lon="0.025633">
        <ele>1544.9</ele>
        <time>2014-05-03T15:27:03Z</time>
      </trkpt>
      <trkpt lat="42.580527" lon="0.025510">
        <ele>1543.2</ele>
        <time>2014-05-03T15:27:16Z</time>
      </trkpt>
      <trkpt lat="42.580542" lon="0.025385">
        <ele>1541.5</ele>
        <time>2014-05-03T15:27:29Z</time>
      </trkpt>
      <trkpt lat="42.580512" lon="0.025254">
        <ele>1539.6</ele>
        <time>2014-05-03T15:27:42Z</time>
      </trkpt>
      <trkpt lat="42.580508" lon="0.025105">
        <ele>1538.7</ele>
        <time>2014-05-03T15:27:53Z</time>
      </trkpt>
      <trkpt lat="42.580496" lon="0.024973">
        <ele>1537.2</ele>
        <time>2014-05-03T15:28:06Z</time>
      </trkpt>
      <trkpt lat="42.580494" lon="0.024848">
        <ele>1535.7</ele>
        <time>2014-05-03T15:28:20Z</time>
      </trkpt>
      <trkpt lat="42.580467" lon="0.024724">
        <ele>1533.8</ele>
        <time>2014-05-03T15:28:32Z</time>
      </trkpt>
      <trkpt lat="42.580468" lon="0.024616">
        <ele>1532.9</ele>
        <time>2014-05-03T15:28:42Z</time>
      </trkpt>
      <trkpt lat="42.580522" lon="0.024513">
        <ele>1531.8</ele>
        <time>2014-05-03T15:28:57Z</time>
      </trkpt>
      <trkpt lat="42.580516" lon="0.024394">
        <ele>1530.5</ele>
        <time>2014-05-03T15:29:07Z</time>
      </trkpt>
      <trkpt lat="42.580495" lon="0.024283">
        <ele>1528.5</ele>
        <time>2014-05-03T15:29:19Z</time>
      </trkpt>
      <trkpt lat="42.580456" lon="0.024175">
        <ele>1526.4</ele>
        <time>2014-05-03T15:29:33Z</time>
      </trkpt>
      <trkpt lat="42.580465" lon="0.024045">
        <ele>1524.8</ele>
        <time>2014-05-03T15:29:45Z</time>
      </trkpt>
      <trkpt lat="42.580439" lon="0.023927">
        <ele>1523.1</ele>
        <time>2014-05-03T15:29:59Z</time>
      </trkpt>
      <trkpt lat="42.580434" lon="0.023798">
        <ele>1520.7</ele>
        <time>2014-05-03T15:30:13Z</time>
      </trkpt>
      <trkpt lat="42.580452" lon="0.023678">
        <ele>1519.7</ele>
        <time>2014-05-03T15:30:23Z</time>
      </trkpt>
      <trkpt lat="42.580476" lon="0.023554">
        <ele>1519.1</ele>
        <time>2014-05-03T15:30:33Z</time>
      </trkpt>
      <trkpt lat="42.580521" lon="0.023429">
        <ele>1518.3</ele>
        <time>2014-05-03T15:30:42Z</time>
      </trkpt>
      <trkpt lat="42.580557" lon="0.023305">
        <ele>1517.8</ele>
        <time>2014-05-03T15:30:52Z</time>
      </trkpt>
      <trkpt lat="42.580596" lon="0.023186">
        <ele>1516.8</ele>
        <time>2014-05-03T15:31:02Z</time>
      </trkpt>
      <trkpt lat="42.580623" lon="0.023060">
        <ele>1515.9</ele>
        <time>2014-05-03T15:31:12Z</time>
      </trkpt>
      <trkpt lat="42.580651" lon="0.022935">
        <ele>1515.5</ele>
        <time>2014-05-03T15:31:22Z</time>
      </trkpt>
      <trkpt lat="42.580683" lon="0.022810">
        <ele>1514.3</ele>
        <time>2014-05-03T15:31:33Z</time>
      </trkpt>
      <trkpt lat="42.580706" lon="0.022683">
        <ele>1513.6</ele>
        <time>2014-05-03T15:31:43Z</time>
      </trkpt>
      <trkpt lat="42.580718" lon="0.022548">
        <ele>1512.4</ele>
        <time>2014-05-03T15:31:53Z</time>
      </trkpt>
      <trkpt lat="42.580734" lon="0.022416">
        <ele>1510.9</ele>
        <time>2014-05-03T15:32:04Z</time>
      </trkpt>
      <trkpt lat="42.580698" lon="0.022291">
        <ele>1508.4</ele>
        <time>2014-05-03T15:32:20Z</time>
      </trkpt>
      <trkpt lat="42.580664" lon="0.022166">
        <ele>1505.6</ele>
        <time>2014-05-03T15:32:34Z</time>
      </trkpt>
      <trkpt lat="42.580655" lon="0.022050">
        <ele>1503.7</ele>
        <time>2014-05-03T15:32:44Z</time>
      </trkpt>
      <trkpt lat="42.580731" lon="0.021962">
        <ele>1501.5</ele>
        <time>2014-05-03T15:32:54Z</time>
      </trkpt>
      <trkpt lat="42.580730" lon="0.021839">
        <ele>1500.0</ele>
        <time>2014-05-03T15:33:10Z</time>
      </trkpt>
      <trkpt lat="42.580702" lon="0.021709">
        <ele>1499.5</ele>
        <time>2014-05-03T15:33:25Z</time>
      </trkpt>
      <trkpt lat="42.580663" lon="0.021584">
        <ele>1498.7</ele>
        <time>2014-05-03T15:33:38Z</time>
      </trkpt>
      <trkpt lat="42.580620" lon="0.021478">
        <ele>1497.6</ele>
        <time>2014-05-03T15:33:47Z</time>
      </trkpt>
      <trkpt lat="42.580611" lon="0.021345">
        <ele>1496.6</ele>
        <time>2014-05-03T15:33:57Z</time>
      </trkpt>
      <trkpt lat="42.580608" lon="0.021222">
        <ele>1496.1</ele>
        <time>2014-05-03T15:34:08Z</time>
      </trkpt>
      <trkpt lat="42.580561" lon="0.021112">
        <ele>1493.5</ele>
        <time>2014-05-03T15:34:22Z</time>
      </trkpt>
      <trkpt lat="42.580540" lon="0.020987">
        <ele>1491.3</ele>
        <time>2014-05-03T15:34:35Z</time>
      </trkpt>
      <trkpt lat="42.580505" lon="0.020876">
        <ele>1489.8</ele>
        <time>2014-05-03T15:34:45Z</time>
      </trkpt>
      <trkpt lat="42.580493" lon="0.020769">
        <ele>1488.2</ele>
        <time>2014-05-03T15:34:55Z</time>
      </trkpt>
      <trkpt lat="42.580544" lon="0.020659">
        <ele>1486.9</ele>
        <time>2014-05-03T15:35:05Z</time>
      </trkpt>
      <trkpt lat="42.580584" lon="0.020553">
        <ele>1486.2</ele>
        <time>2014-05-03T15:35:15Z</time>
      </trkpt>
      <trkpt lat="42.580594" lon="0.020425">
        <ele>1485.0</ele>
        <time>2014-05-03T15:35:27Z</time>
      </trkpt>
      <trkpt lat="42.580558" lon="0.020291">
        <ele>1483.1</ele>
        <time>2014-05-03T15:35:39Z</time>
      </trkpt>
      <trkpt lat="42.580520" lon="0.020154">
        <ele>1482.2</ele>
        <time>2014-05-03T15:35:50Z</time>
      </trkpt>
      <trkpt lat="42.580513" lon="0.020037">
        <ele>1480.8</ele>
        <time>2014-05-03T15:35:59Z</time>
      </trkpt>
      <trkpt lat="42.580448" lon="0.019950">
        <ele>1479.7</ele>
        <time>2014-05-03T15:36:08Z</time>
      </trkpt>
      <trkpt lat="42.580412" lon="0.020063">
        <ele>1478.2</ele>
        <time>2014-05-03T15:36:18Z</time>
      </trkpt>
      <trkpt lat="42.580363" lon="0.020138">
        <ele>1476.4</ele>
        <time>2014-05-03T15:36:29Z</time>
      </trkpt>
      <trkpt lat="42.580302" lon="0.020215">
        <ele>1474.1</ele>
        <time>2014-05-03T15:36:41Z</time>
      </trkpt>
      <trkpt lat="42.580270" lon="0.020228">
        <ele>1470.8</ele>
        <time>2014-05-03T15:36:54Z</time>
      </trkpt>
      <trkpt lat="42.580187" lon="0.020174">
        <ele>1467.9</ele>
        <time>2014-05-03T15:37:05Z</time>
      </trkpt>
      <trkpt lat="42.580137" lon="0.020059">
        <ele>1465.2</ele>
        <time>2014-05-03T15:37:16Z</time>
      </trkpt>
      <trkpt lat="42.580123" lon="0.019935">
        <ele>1462.9</ele>
        <time>2014-05-03T15:37:26Z</time>
      </trkpt>
      <trkpt lat="42.580103" lon="0.019810">
        <ele>1460.6</ele>
        <time>2014-05-03T15:37:37Z</time>
      </trkpt>
      <trkpt lat="42.580046" lon="0.019921">
        <ele>1458.2</ele>
        <time>2014-05-03T15:37:50Z</time>
      </trkpt>
      <trkpt lat="42.580003" lon="0.020032">
        <ele>1456.6</ele>
        <time>2014-05-03T15:38:02Z</time>
      </trkpt>
      <trkpt lat="42.579951" lon="0.019932">
        <ele>1453.3</ele>
        <time>2014-05-03T15:38:34Z</time>
      </trkpt>
      <trkpt lat="42.579958" lon="0.019822">
        <ele>1451.3</ele>
        <time>2014-05-03T15:38:43Z</time>
      </trkpt>
      <trkpt lat="42.579969" lon="0.019698">
        <ele>1449.4</ele>
        <time>2014-05-03T15:38:55Z</time>
      </trkpt>
      <trkpt lat="42.579951" lon="0.019584">
        <ele>1447.7</ele>
        <time>2014-05-03T15:39:06Z</time>
      </trkpt>
      <trkpt lat="42.579932" lon="0.019471">
        <ele>1445.9</ele>
        <time>2014-05-03T15:39:16Z</time>
      </trkpt>
      <trkpt lat="42.579911" lon="0.019327">
        <ele>1443.7</ele>
        <time>2014-05-03T15:39:30Z</time>
      </trkpt>
      <trkpt lat="42.579864" lon="0.019203">
        <ele>1442.2</ele>
        <time>2014-05-03T15:39:42Z</time>
      </trkpt>
      <trkpt lat="42.579827" lon="0.019088">
        <ele>1439.3</ele>
        <time>2014-05-03T15:39:55Z</time>
      </trkpt>
      <trkpt lat="42.579802" lon="0.018995">
        <ele>1437.7</ele>
        <time>2014-05-03T15:40:10Z</time>
      </trkpt>
      <trkpt lat="42.579721" lon="0.019047">
        <ele>1436.5</ele>
        <time>2014-05-03T15:40:21Z</time>
      </trkpt>
      <trkpt lat="42.579650" lon="0.019122">
        <ele>1434.8</ele>
        <time>2014-05-03T15:40:32Z</time>
      </trkpt>
      <trkpt lat="42.579585" lon="0.019037">
        <ele>1432.6</ele>
        <time>2014-05-03T15:40:42Z</time>
      </trkpt>
      <trkpt lat="42.579512" lon="0.018960">
        <ele>1430.5</ele>
        <time>2014-05-03T15:40:53Z</time>
      </trkpt>
      <trkpt lat="42.579441" lon="0.018874">
        <ele>1427.4</ele>
        <time>2014-05-03T15:41:06Z</time>
      </trkpt>
      <trkpt lat="42.579438" lon="0.018758">
        <ele>1424.7</ele>
        <time>2014-05-03T15:41:18Z</time>
      </trkpt>
      <trkpt lat="42.579382" lon="0.018659">
        <ele>1421.3</ele>
        <time>2014-05-03T15:41:33Z</time>
      </trkpt>
      <trkpt lat="42.579352" lon="0.018611">
        <ele>1418.9</ele>
        <time>2014-05-03T15:41:44Z</time>
      </trkpt>
      <trkpt lat="42.579428" lon="0.018532">
        <ele>1416.4</ele>
        <time>2014-05-03T15:41:56Z</time>
      </trkpt>
      <trkpt lat="42.579387" lon="0.018461">
        <ele>1414.8</ele>
        <time>2014-05-03T15:42:08Z</time>
      </trkpt>
      <trkpt lat="42.579385" lon="0.018392">
        <ele>1412.4</ele>
        <time>2014-05-03T15:42:21Z</time>
      </trkpt>
      <trkpt lat="42.579319" lon="0.018320">
        <ele>1410.5</ele>
        <time>2014-05-03T15:42:31Z</time>
      </trkpt>
      <trkpt lat="42.579234" lon="0.018323">
        <ele>1408.3</ele>
        <time>2014-05-03T15:42:42Z</time>
      </trkpt>
      <trkpt lat="42.579154" lon="0.018375">
        <ele>1406.2</ele>
        <time>2014-05-03T15:42:52Z</time>
      </trkpt>
      <trkpt lat="42.579087" lon="0.018426">
        <ele>1404.4</ele>
        <time>2014-05-03T15:43:02Z</time>
      </trkpt>
      <trkpt lat="42.579009" lon="0.018495">
        <ele>1402.4</ele>
        <time>2014-05-03T15:43:14Z</time>
      </trkpt>
      <trkpt lat="42.578929" lon="0.018551">
        <ele>1400.7</ele>
        <time>2014-05-03T15:43:25Z</time>
      </trkpt>
      <trkpt lat="42.578880" lon="0.018659">
        <ele>1398.3</ele>
        <time>2014-05-03T15:43:36Z</time>
      </trkpt>
      <trkpt lat="42.578822" lon="0.018762">
        <ele>1397.0</ele>
        <time>2014-05-03T15:43:46Z</time>
      </trkpt>
      <trkpt lat="42.578741" lon="0.018814">
        <ele>1394.9</ele>
        <time>2014-05-03T15:43:58Z</time>
      </trkpt>
      <trkpt lat="42.578683" lon="0.018828">
        <ele>1392.3</ele>
        <time>2014-05-03T15:44:13Z</time>
      </trkpt>
      <trkpt lat="42.578626" lon="0.018728">
        <ele>1390.2</ele>
        <time>2014-05-03T15:44:23Z</time>
      </trkpt>
      <trkpt lat="42.578565" lon="0.018640">
        <ele>1388.2</ele>
        <time>2014-05-03T15:44:32Z</time>
      </trkpt>
      <trkpt lat="42.578500" lon="0.018536">
        <ele>1386.4</ele>
        <time>2014-05-03T15:44:40Z</time>
      </trkpt>
      <trkpt lat="42.578449" lon="0.018428">
        <ele>1384.4</ele>
        <time>2014-05-03T15:44:49Z</time>
      </trkpt>
      <trkpt lat="42.578431" lon="0.018306">
        <ele>1382.0</ele>
        <time>2014-05-03T15:44:59Z</time>
      </trkpt>
      <trkpt lat="42.578410" lon="0.018195">
        <ele>1379.5</ele>
        <time>2014-05-03T15:45:09Z</time>
      </trkpt>
      <trkpt lat="42.578321" lon="0.018208">
        <ele>1377.5</ele>
        <time>2014-05-03T15:45:19Z</time>
      </trkpt>
      <trkpt lat="42.578228" lon="0.018228">
        <ele>1375.4</ele>
        <time>2014-05-03T15:45:28Z</time>
      </trkpt>
      <trkpt lat="42.578148" lon="0.018215">
        <ele>1372.8</ele>
        <time>2014-05-03T15:45:38Z</time>
      </trkpt>
      <trkpt lat="42.578137" lon="0.018106">
        <ele>1370.2</ele>
        <time>2014-05-03T15:45:49Z</time>
      </trkpt>
      <trkpt lat="42.578131" lon="0.018007">
        <ele>1367.2</ele>
        <time>2014-05-03T15:46:00Z</time>
      </trkpt>
      <trkpt lat="42.578027" lon="0.018031">
        <ele>1365.8</ele>
        <time>2014-05-03T15:46:10Z</time>
      </trkpt>
      <trkpt lat="42.577931" lon="0.018038">
        <ele>1365.2</ele>
        <time>2014-05-03T15:46:19Z</time>
      </trkpt>
      <trkpt lat="42.577837" lon="0.018078">
        <ele>1364.0</ele>
        <time>2014-05-03T15:46:28Z</time>
      </trkpt>
      <trkpt lat="42.577736" lon="0.018103">
        <ele>1362.9</ele>
        <time>2014-05-03T15:46:37Z</time>
      </trkpt>
      <trkpt lat="42.577627" lon="0.018065">
        <ele>1361.7</ele>
        <time>2014-05-03T15:46:46Z</time>
      </trkpt>
      <trkpt lat="42.577585" lon="0.017983">
        <ele>1359.9</ele>
        <time>2014-05-03T15:46:57Z</time>
      </trkpt>
    </trkseg>
  </trk>
</gpx>

